<?xml version="1.0" encoding="UTF-8" standalone="yes"?>
<gpx xmlns="http://www.topografix.com/GPX/1/1" xmlns:gpxx="http://www.garmin.com/xmlschemas/GpxExtensions/v3" xmlns:gpxtpx="http://www.garmin.com/xmlschemas/TrackPointExtension/v1" creator="TCX Converter" version="1.1" xmlns:xsi="http://www.w3.org/2001/XMLSchema-instance" xsi:schemaLocation="http://www.topografix.com/GPX/1/1 http://www.topografix.com/GPX/1/1/gpx.xsd http://www.garmin.com/xmlschemas/GpxExtensions/v3 http://www.garmin.com/xmlschemas/GpxExtensions/v3/GpxExtensionsv3.xsd http://www.garmin.com/xmlschemas/TrackPointExtension/v1 http://www.garmin.com/xmlschemas/TrackPointExtension/v1/TrackPointExtensionv1.xsd">
<metadata>
<link href="http://www.teambikeolympo.it">
<text>Team Bike Olympo, The house of TCX Converter</text>
</link>
<time>2009-04-06T19:08:57Z</time>
</metadata>
  <wpt lat="46.112597" lon="8.305527">
    <name>Iniziocicl</name>
    <desc>2010-03-31T09:44:52Z</desc>
  </wpt>
  <wpt lat="46.076571" lon="8.273503">
    <name>Fineciclab</name>
    <desc>2010-03-31T10:08:12Z</desc>
  </wpt>
  <wpt lat="46.070774" lon="8.267080">
    <name>Contromano</name>
    <desc>2010-03-31T10:13:46Z</desc>
  </wpt>
  <wpt lat="46.070003" lon="8.262683">
    <name>TorrenteOv</name>
    <desc>2010-03-31T10:16:03Z</desc>
  </wpt>
  <wpt lat="46.066825" lon="8.265925">
    <name>Pass.livel</name>
    <desc>2010-03-31T10:19:30Z</desc>
  </wpt>
  <wpt lat="46.059282" lon="8.276119">
    <name>Iniziocicl</name>
    <desc>2010-03-31T10:23:26Z</desc>
  </wpt>
  <wpt lat="46.046261" lon="8.265384">
    <name>Fineciclab</name>
    <desc>2010-03-31T10:29:18Z</desc>
  </wpt>
  <wpt lat="46.043759" lon="8.261378">
    <name>Pallanzeno</name>
    <desc>2010-03-31T10:32:45Z</desc>
  </wpt>
  <wpt lat="46.037294" lon="8.261401">
    <name>Iniziosing</name>
    <desc>2010-03-31T10:35:09Z</desc>
  </wpt>
  <wpt lat="46.027141" lon="8.260736">
    <name>finesingle</name>
    <desc>2010-03-31T10:39:35Z</desc>
  </wpt>
  <wpt lat="46.010066" lon="8.273683">
    <name>Pass.livel</name>
    <desc>2010-03-31T10:55:14Z</desc>
  </wpt>
  <wpt lat="46.017516" lon="8.274909">
    <name>Sottopasso</name>
    <desc>2010-03-31T10:58:33Z</desc>
  </wpt>
  <wpt lat="46.002722" lon="8.298659">
    <name>In.sterrat</name>
    <desc>2010-03-31T11:15:05Z</desc>
  </wpt>
  <wpt lat="46.003059" lon="8.306610">
    <name>Iniziocicl</name>
    <desc>2010-03-31T11:33:46Z</desc>
  </wpt>
  <wpt lat="45.994743" lon="8.332261">
    <name>OasiWWFBos</name>
    <desc>2010-03-31T11:50:35Z</desc>
  </wpt>
  <wpt lat="45.999628" lon="8.341818">
    <name>Sottopasso</name>
    <desc>2010-03-31T11:56:58Z</desc>
  </wpt>
  <wpt lat="45.991437" lon="8.378058">
    <name>Finesterra</name>
    <desc>2010-03-31T12:20:36Z</desc>
  </wpt>
  <wpt lat="45.983618" lon="8.403234">
    <name>S.Bernardo</name>
    <desc>2010-03-31T12:32:04Z</desc>
  </wpt>
  <wpt lat="45.971995" lon="8.414250">
    <name>Pass.livel</name>
    <desc>2010-03-31T12:39:59Z</desc>
  </wpt>
  <wpt lat="45.974583" lon="8.421631">
    <name>Passerella</name>
    <desc>2010-03-31T12:43:07Z</desc>
  </wpt>
  <wpt lat="45.975116" lon="8.422573">
    <name>Iniziocicl</name>
    <desc>2010-03-31T12:43:27Z</desc>
  </wpt>
  <wpt lat="45.940774" lon="8.438529">
    <name>Fineciclab</name>
    <desc>2010-03-31T13:15:38Z</desc>
  </wpt>
  <wpt lat="45.938596" lon="8.441535">
    <name>Imboccosen</name>
    <desc>2010-03-31T13:16:51Z</desc>
  </wpt>
  <wpt lat="46.115402" lon="8.296067">
    <name>Domodossol</name>
    <desc>2010-04-01T21:43:35Z</desc>
  </wpt>
  <trk>
    <name>DO-VB corretto</name>
    <trkseg>
      <trkpt lat="46.115402" lon="8.296067">
        <ele>271.2539062</ele>
        <time>2010-04-01T21:43:35Z</time>
      </trkpt>
      <trkpt lat="46.112897" lon="8.296164">
        <ele>267.5390625</ele>
      </trkpt>
      <trkpt lat="46.112531" lon="8.296061">
        <ele>266.3906250</ele>
      </trkpt>
      <trkpt lat="46.112332" lon="8.296808">
        <ele>265.7148438</ele>
      </trkpt>
      <trkpt lat="46.112284" lon="8.297714">
        <ele>267.3437500</ele>
      </trkpt>
      <trkpt lat="46.112433" lon="8.302087">
        <ele>262.2109375</ele>
      </trkpt>
      <trkpt lat="46.112597" lon="8.305527">
        <ele>267.2000122</ele>
        <time>2010-03-31T09:44:52Z</time>
      </trkpt>
      <trkpt lat="46.112322" lon="8.305557">
        <ele>267.6000061</ele>
        <time>2010-03-31T09:45:21Z</time>
      </trkpt>
      <trkpt lat="46.111976" lon="8.305562">
        <ele>264.7999878</ele>
        <time>2010-03-31T09:45:26Z</time>
      </trkpt>
      <trkpt lat="46.111576" lon="8.305542">
        <ele>263.6000061</ele>
        <time>2010-03-31T09:45:32Z</time>
      </trkpt>
      <trkpt lat="46.111042" lon="8.305498">
        <ele>262.0000000</ele>
        <time>2010-03-31T09:45:41Z</time>
      </trkpt>
      <trkpt lat="46.110593" lon="8.305419">
        <ele>261.0000000</ele>
        <time>2010-03-31T09:45:49Z</time>
      </trkpt>
      <trkpt lat="46.110142" lon="8.305347">
        <ele>260.3999939</ele>
        <time>2010-03-31T09:45:57Z</time>
      </trkpt>
      <trkpt lat="46.109920" lon="8.305404">
        <ele>260.2000122</ele>
        <time>2010-03-31T09:46:01Z</time>
      </trkpt>
      <trkpt lat="46.109729" lon="8.305404">
        <ele>261.2000122</ele>
        <time>2010-03-31T09:46:06Z</time>
      </trkpt>
      <trkpt lat="46.109610" lon="8.305395">
        <ele>261.3999939</ele>
        <time>2010-03-31T09:46:12Z</time>
      </trkpt>
      <trkpt lat="46.109406" lon="8.305308">
        <ele>261.0000000</ele>
        <time>2010-03-31T09:46:17Z</time>
      </trkpt>
      <trkpt lat="46.108955" lon="8.305135">
        <ele>261.3999939</ele>
        <time>2010-03-31T09:46:26Z</time>
      </trkpt>
      <trkpt lat="46.108408" lon="8.305007">
        <ele>261.0000000</ele>
        <time>2010-03-31T09:46:36Z</time>
      </trkpt>
      <trkpt lat="46.107968" lon="8.304826">
        <ele>260.6000061</ele>
        <time>2010-03-31T09:46:44Z</time>
      </trkpt>
      <trkpt lat="46.107530" lon="8.304618">
        <ele>260.7999878</ele>
        <time>2010-03-31T09:46:52Z</time>
      </trkpt>
      <trkpt lat="46.106919" lon="8.304496">
        <ele>260.6000061</ele>
        <time>2010-03-31T09:47:03Z</time>
      </trkpt>
      <trkpt lat="46.106245" lon="8.304347">
        <ele>260.2000122</ele>
        <time>2010-03-31T09:47:15Z</time>
      </trkpt>
      <trkpt lat="46.105682" lon="8.304226">
        <ele>259.6000061</ele>
        <time>2010-03-31T09:47:25Z</time>
      </trkpt>
      <trkpt lat="46.105338" lon="8.304089">
        <ele>258.3999939</ele>
        <time>2010-03-31T09:47:31Z</time>
      </trkpt>
      <trkpt lat="46.104922" lon="8.303955">
        <ele>256.6000061</ele>
        <time>2010-03-31T09:47:37Z</time>
      </trkpt>
      <trkpt lat="46.104204" lon="8.304003">
        <ele>255.0000000</ele>
        <time>2010-03-31T09:47:48Z</time>
      </trkpt>
      <trkpt lat="46.103775" lon="8.304042">
        <ele>253.8000031</ele>
        <time>2010-03-31T09:47:55Z</time>
      </trkpt>
      <trkpt lat="46.103321" lon="8.304143">
        <ele>253.1999969</ele>
        <time>2010-03-31T09:48:03Z</time>
      </trkpt>
      <trkpt lat="46.102759" lon="8.304222">
        <ele>252.8000031</ele>
        <time>2010-03-31T09:48:13Z</time>
      </trkpt>
      <trkpt lat="46.102002" lon="8.304329">
        <ele>251.3999939</ele>
        <time>2010-03-31T09:48:26Z</time>
      </trkpt>
      <trkpt lat="46.101589" lon="8.304377">
        <ele>251.3999939</ele>
        <time>2010-03-31T09:48:33Z</time>
      </trkpt>
      <trkpt lat="46.101125" lon="8.304430">
        <ele>251.1999969</ele>
        <time>2010-03-31T09:48:41Z</time>
      </trkpt>
      <trkpt lat="46.100416" lon="8.304462">
        <ele>250.6000061</ele>
        <time>2010-03-31T09:48:53Z</time>
      </trkpt>
      <trkpt lat="46.099736" lon="8.304445">
        <ele>249.1999969</ele>
        <time>2010-03-31T09:49:04Z</time>
      </trkpt>
      <trkpt lat="46.099172" lon="8.304420">
        <ele>248.8000031</ele>
        <time>2010-03-31T09:49:13Z</time>
      </trkpt>
      <trkpt lat="46.098454" lon="8.304389">
        <ele>248.6000061</ele>
        <time>2010-03-31T09:49:25Z</time>
      </trkpt>
      <trkpt lat="46.097807" lon="8.304346">
        <ele>248.6000061</ele>
        <time>2010-03-31T09:49:36Z</time>
      </trkpt>
      <trkpt lat="46.097416" lon="8.304344">
        <ele>250.6000061</ele>
        <time>2010-03-31T09:49:43Z</time>
      </trkpt>
      <trkpt lat="46.097157" lon="8.304331">
        <ele>252.0000000</ele>
        <time>2010-03-31T09:49:49Z</time>
      </trkpt>
      <trkpt lat="46.096884" lon="8.304260">
        <ele>252.0000000</ele>
        <time>2010-03-31T09:49:55Z</time>
      </trkpt>
      <trkpt lat="46.096578" lon="8.304157">
        <ele>252.3999939</ele>
        <time>2010-03-31T09:50:01Z</time>
      </trkpt>
      <trkpt lat="46.095971" lon="8.303970">
        <ele>253.0000000</ele>
        <time>2010-03-31T09:50:12Z</time>
      </trkpt>
      <trkpt lat="46.095473" lon="8.303770">
        <ele>253.3999939</ele>
        <time>2010-03-31T09:50:21Z</time>
      </trkpt>
      <trkpt lat="46.095083" lon="8.303568">
        <ele>254.3999939</ele>
        <time>2010-03-31T09:53:02Z</time>
      </trkpt>
      <trkpt lat="46.094941" lon="8.303470">
        <ele>253.1999969</ele>
        <time>2010-03-31T09:53:06Z</time>
      </trkpt>
      <trkpt lat="46.094626" lon="8.303268">
        <ele>251.0000000</ele>
        <time>2010-03-31T09:53:12Z</time>
      </trkpt>
      <trkpt lat="46.094122" lon="8.302888">
        <ele>248.6000061</ele>
        <time>2010-03-31T09:53:21Z</time>
      </trkpt>
      <trkpt lat="46.093972" lon="8.302602">
        <ele>247.6000061</ele>
        <time>2010-03-31T09:53:25Z</time>
      </trkpt>
      <trkpt lat="46.093876" lon="8.302331">
        <ele>247.6000061</ele>
        <time>2010-03-31T09:53:29Z</time>
      </trkpt>
      <trkpt lat="46.093878" lon="8.302172">
        <ele>247.1999969</ele>
        <time>2010-03-31T09:53:31Z</time>
      </trkpt>
      <trkpt lat="46.093663" lon="8.301808">
        <ele>246.3999939</ele>
        <time>2010-03-31T09:53:36Z</time>
      </trkpt>
      <trkpt lat="46.093567" lon="8.301600">
        <ele>246.6000061</ele>
        <time>2010-03-31T09:53:39Z</time>
      </trkpt>
      <trkpt lat="46.093512" lon="8.301209">
        <ele>246.8000031</ele>
        <time>2010-03-31T09:53:44Z</time>
      </trkpt>
      <trkpt lat="46.093520" lon="8.300464">
        <ele>245.6000061</ele>
        <time>2010-03-31T09:53:53Z</time>
      </trkpt>
      <trkpt lat="46.093520" lon="8.299770">
        <ele>244.8000031</ele>
        <time>2010-03-31T09:54:01Z</time>
      </trkpt>
      <trkpt lat="46.093534" lon="8.299139">
        <ele>244.3999939</ele>
        <time>2010-03-31T09:54:08Z</time>
      </trkpt>
      <trkpt lat="46.093443" lon="8.298817">
        <ele>244.0000000</ele>
        <time>2010-03-31T09:54:12Z</time>
      </trkpt>
      <trkpt lat="46.093359" lon="8.298485">
        <ele>244.0000000</ele>
        <time>2010-03-31T09:54:16Z</time>
      </trkpt>
      <trkpt lat="46.093355" lon="8.297537">
        <ele>244.1999969</ele>
        <time>2010-03-31T09:54:27Z</time>
      </trkpt>
      <trkpt lat="46.093382" lon="8.296878">
        <ele>243.6000061</ele>
        <time>2010-03-31T09:54:35Z</time>
      </trkpt>
      <trkpt lat="46.093392" lon="8.296431">
        <ele>243.6000061</ele>
        <time>2010-03-31T09:54:41Z</time>
      </trkpt>
      <trkpt lat="46.093540" lon="8.296240">
        <ele>243.0000000</ele>
        <time>2010-03-31T09:54:45Z</time>
      </trkpt>
      <trkpt lat="46.093682" lon="8.296214">
        <ele>243.6000061</ele>
        <time>2010-03-31T09:54:49Z</time>
      </trkpt>
      <trkpt lat="46.093809" lon="8.296243">
        <ele>244.8000031</ele>
        <time>2010-03-31T09:54:55Z</time>
      </trkpt>
      <trkpt lat="46.094053" lon="8.296277">
        <ele>246.3999939</ele>
        <time>2010-03-31T09:55:01Z</time>
      </trkpt>
      <trkpt lat="46.094447" lon="8.296320">
        <ele>245.8000031</ele>
        <time>2010-03-31T09:55:09Z</time>
      </trkpt>
      <trkpt lat="46.094650" lon="8.296324">
        <ele>246.0000000</ele>
        <time>2010-03-31T09:55:13Z</time>
      </trkpt>
      <trkpt lat="46.094835" lon="8.296233">
        <ele>245.8000031</ele>
        <time>2010-03-31T09:55:17Z</time>
      </trkpt>
      <trkpt lat="46.094927" lon="8.295986">
        <ele>245.0000000</ele>
        <time>2010-03-31T09:55:21Z</time>
      </trkpt>
      <trkpt lat="46.094937" lon="8.294889">
        <ele>245.0000000</ele>
        <time>2010-03-31T09:55:35Z</time>
      </trkpt>
      <trkpt lat="46.095055" lon="8.294507">
        <ele>243.1999969</ele>
        <time>2010-03-31T09:55:40Z</time>
      </trkpt>
      <trkpt lat="46.095222" lon="8.294157">
        <ele>242.0000000</ele>
        <time>2010-03-31T09:55:45Z</time>
      </trkpt>
      <trkpt lat="46.095285" lon="8.294043">
        <ele>242.0000000</ele>
        <time>2010-03-31T09:55:47Z</time>
      </trkpt>
      <trkpt lat="46.095270" lon="8.293814">
        <ele>241.6000061</ele>
        <time>2010-03-31T09:55:51Z</time>
      </trkpt>
      <trkpt lat="46.095227" lon="8.293784">
        <ele>241.6000061</ele>
        <time>2010-03-31T09:55:52Z</time>
      </trkpt>
      <trkpt lat="46.094709" lon="8.293466">
        <ele>242.0000000</ele>
        <time>2010-03-31T09:56:02Z</time>
      </trkpt>
      <trkpt lat="46.094158" lon="8.293122">
        <ele>242.3999939</ele>
        <time>2010-03-31T09:56:12Z</time>
      </trkpt>
      <trkpt lat="46.093589" lon="8.292823">
        <ele>242.6000061</ele>
        <time>2010-03-31T09:56:22Z</time>
      </trkpt>
      <trkpt lat="46.093241" lon="8.292777">
        <ele>242.8000031</ele>
        <time>2010-03-31T09:56:28Z</time>
      </trkpt>
      <trkpt lat="46.093024" lon="8.292746">
        <ele>243.1999969</ele>
        <time>2010-03-31T09:56:32Z</time>
      </trkpt>
      <trkpt lat="46.092920" lon="8.292664">
        <ele>243.0000000</ele>
        <time>2010-03-31T09:56:35Z</time>
      </trkpt>
      <trkpt lat="46.092633" lon="8.292393">
        <ele>243.1999969</ele>
        <time>2010-03-31T09:56:42Z</time>
      </trkpt>
      <trkpt lat="46.092496" lon="8.292282">
        <ele>243.1999969</ele>
        <time>2010-03-31T09:56:45Z</time>
      </trkpt>
      <trkpt lat="46.092436" lon="8.292056">
        <ele>243.1999969</ele>
        <time>2010-03-31T09:56:49Z</time>
      </trkpt>
      <trkpt lat="46.092430" lon="8.291687">
        <ele>243.0000000</ele>
        <time>2010-03-31T09:56:54Z</time>
      </trkpt>
      <trkpt lat="46.092188" lon="8.291159">
        <ele>243.0000000</ele>
        <time>2010-03-31T09:57:02Z</time>
      </trkpt>
      <trkpt lat="46.091867" lon="8.290505">
        <ele>243.3999939</ele>
        <time>2010-03-31T09:57:12Z</time>
      </trkpt>
      <trkpt lat="46.091596" lon="8.290194">
        <ele>242.8000031</ele>
        <time>2010-03-31T09:57:18Z</time>
      </trkpt>
      <trkpt lat="46.091190" lon="8.289779">
        <ele>242.1999969</ele>
        <time>2010-03-31T09:57:27Z</time>
      </trkpt>
      <trkpt lat="46.090997" lon="8.289733">
        <ele>242.3999939</ele>
        <time>2010-03-31T09:57:31Z</time>
      </trkpt>
      <trkpt lat="46.090884" lon="8.289838">
        <ele>242.3999939</ele>
        <time>2010-03-31T09:57:34Z</time>
      </trkpt>
      <trkpt lat="46.090713" lon="8.289735">
        <ele>241.8000031</ele>
        <time>2010-03-31T09:57:38Z</time>
      </trkpt>
      <trkpt lat="46.090334" lon="8.289305">
        <ele>241.3999939</ele>
        <time>2010-03-31T09:57:47Z</time>
      </trkpt>
      <trkpt lat="46.090100" lon="8.289318">
        <ele>241.3999939</ele>
        <time>2010-03-31T09:57:52Z</time>
      </trkpt>
      <trkpt lat="46.089658" lon="8.290016">
        <ele>239.8000031</ele>
        <time>2010-03-31T09:58:04Z</time>
      </trkpt>
      <trkpt lat="46.089420" lon="8.290214">
        <ele>239.8000031</ele>
        <time>2010-03-31T09:58:09Z</time>
      </trkpt>
      <trkpt lat="46.089259" lon="8.290405">
        <ele>241.0000000</ele>
        <time>2010-03-31T09:58:13Z</time>
      </trkpt>
      <trkpt lat="46.089232" lon="8.290521">
        <ele>241.8000031</ele>
        <time>2010-03-31T09:58:15Z</time>
      </trkpt>
      <trkpt lat="46.089195" lon="8.290671">
        <ele>242.6000061</ele>
        <time>2010-03-31T09:58:18Z</time>
      </trkpt>
      <trkpt lat="46.089138" lon="8.290596">
        <ele>243.8000031</ele>
        <time>2010-03-31T09:58:22Z</time>
      </trkpt>
      <trkpt lat="46.089114" lon="8.290147">
        <ele>242.6000061</ele>
        <time>2010-03-31T09:58:29Z</time>
      </trkpt>
      <trkpt lat="46.089033" lon="8.289405">
        <ele>241.1999969</ele>
        <time>2010-03-31T09:58:39Z</time>
      </trkpt>
      <trkpt lat="46.088897" lon="8.288803">
        <ele>242.3999939</ele>
        <time>2010-03-31T09:58:47Z</time>
      </trkpt>
      <trkpt lat="46.088705" lon="8.288175">
        <ele>241.3999939</ele>
        <time>2010-03-31T09:58:55Z</time>
      </trkpt>
      <trkpt lat="46.088508" lon="8.287665">
        <ele>240.1999969</ele>
        <time>2010-03-31T09:59:02Z</time>
      </trkpt>
      <trkpt lat="46.088407" lon="8.287471">
        <ele>240.1999969</ele>
        <time>2010-03-31T09:59:05Z</time>
      </trkpt>
      <trkpt lat="46.088008" lon="8.286924">
        <ele>239.0000000</ele>
        <time>2010-03-31T09:59:15Z</time>
      </trkpt>
      <trkpt lat="46.087609" lon="8.286525">
        <ele>238.6000061</ele>
        <time>2010-03-31T09:59:24Z</time>
      </trkpt>
      <trkpt lat="46.087470" lon="8.286400">
        <ele>239.1999969</ele>
        <time>2010-03-31T09:59:27Z</time>
      </trkpt>
      <trkpt lat="46.087154" lon="8.286253">
        <ele>240.1999969</ele>
        <time>2010-03-31T09:59:33Z</time>
      </trkpt>
      <trkpt lat="46.086940" lon="8.286166">
        <ele>241.0000000</ele>
        <time>2010-03-31T09:59:37Z</time>
      </trkpt>
      <trkpt lat="46.086449" lon="8.285846">
        <ele>242.6000061</ele>
        <time>2010-03-31T09:59:47Z</time>
      </trkpt>
      <trkpt lat="46.086133" lon="8.285621">
        <ele>242.3999939</ele>
        <time>2010-03-31T09:59:54Z</time>
      </trkpt>
      <trkpt lat="46.085768" lon="8.285347">
        <ele>241.6000061</ele>
        <time>2010-03-31T10:00:02Z</time>
      </trkpt>
      <trkpt lat="46.085448" lon="8.285089">
        <ele>240.8000031</ele>
        <time>2010-03-31T10:00:09Z</time>
      </trkpt>
      <trkpt lat="46.085113" lon="8.284872">
        <ele>240.3999939</ele>
        <time>2010-03-31T10:00:16Z</time>
      </trkpt>
      <trkpt lat="46.084720" lon="8.284627">
        <ele>241.3999939</ele>
        <time>2010-03-31T10:00:24Z</time>
      </trkpt>
      <trkpt lat="46.084183" lon="8.284273">
        <ele>241.8000031</ele>
        <time>2010-03-31T10:00:35Z</time>
      </trkpt>
      <trkpt lat="46.083766" lon="8.283990">
        <ele>239.6000061</ele>
        <time>2010-03-31T10:00:44Z</time>
      </trkpt>
      <trkpt lat="46.083579" lon="8.283701">
        <ele>236.1999969</ele>
        <time>2010-03-31T10:00:49Z</time>
      </trkpt>
      <trkpt lat="46.083336" lon="8.283375">
        <ele>234.8000031</ele>
        <time>2010-03-31T10:00:54Z</time>
      </trkpt>
      <trkpt lat="46.083012" lon="8.283173">
        <ele>234.6000061</ele>
        <time>2010-03-31T10:01:00Z</time>
      </trkpt>
      <trkpt lat="46.082614" lon="8.282919">
        <ele>234.8000031</ele>
        <time>2010-03-31T10:01:08Z</time>
      </trkpt>
      <trkpt lat="46.082359" lon="8.282755">
        <ele>234.3999939</ele>
        <time>2010-03-31T10:01:13Z</time>
      </trkpt>
      <trkpt lat="46.081833" lon="8.282146">
        <ele>234.0000000</ele>
        <time>2010-03-31T10:01:25Z</time>
      </trkpt>
      <trkpt lat="46.081393" lon="8.281593">
        <ele>234.8000031</ele>
        <time>2010-03-31T10:01:35Z</time>
      </trkpt>
      <trkpt lat="46.081127" lon="8.281251">
        <ele>236.3999939</ele>
        <time>2010-03-31T10:01:43Z</time>
      </trkpt>
      <trkpt lat="46.081029" lon="8.280989">
        <ele>236.3999939</ele>
        <time>2010-03-31T10:01:47Z</time>
      </trkpt>
      <trkpt lat="46.080868" lon="8.280275">
        <ele>237.3999939</ele>
        <time>2010-03-31T10:01:54Z</time>
      </trkpt>
      <trkpt lat="46.080744" lon="8.279775">
        <ele>237.8000031</ele>
        <time>2010-03-31T10:02:00Z</time>
      </trkpt>
      <trkpt lat="46.080637" lon="8.279412">
        <ele>238.1999969</ele>
        <time>2010-03-31T10:02:05Z</time>
      </trkpt>
      <trkpt lat="46.080508" lon="8.279184">
        <ele>237.6000061</ele>
        <time>2010-03-31T10:02:09Z</time>
      </trkpt>
      <trkpt lat="46.080382" lon="8.279044">
        <ele>237.6000061</ele>
        <time>2010-03-31T10:02:12Z</time>
      </trkpt>
      <trkpt lat="46.080175" lon="8.278567">
        <ele>236.3999939</ele>
        <time>2010-03-31T10:02:19Z</time>
      </trkpt>
      <trkpt lat="46.080193" lon="8.278253">
        <ele>237.1999969</ele>
        <time>2010-03-31T10:02:23Z</time>
      </trkpt>
      <trkpt lat="46.080300" lon="8.278157">
        <ele>238.3999939</ele>
        <time>2010-03-31T10:02:26Z</time>
      </trkpt>
      <trkpt lat="46.080502" lon="8.278094">
        <ele>239.1999969</ele>
        <time>2010-03-31T10:02:31Z</time>
      </trkpt>
      <trkpt lat="46.080860" lon="8.278068">
        <ele>239.3999939</ele>
        <time>2010-03-31T10:02:38Z</time>
      </trkpt>
      <trkpt lat="46.081018" lon="8.278023">
        <ele>239.0000000</ele>
        <time>2010-03-31T10:02:41Z</time>
      </trkpt>
      <trkpt lat="46.081317" lon="8.278070">
        <ele>238.8000031</ele>
        <time>2010-03-31T10:02:47Z</time>
      </trkpt>
      <trkpt lat="46.081508" lon="8.278070">
        <ele>239.1999969</ele>
        <time>2010-03-31T10:02:52Z</time>
      </trkpt>
      <trkpt lat="46.081515" lon="8.277892">
        <ele>239.3999939</ele>
        <time>2010-03-31T10:02:56Z</time>
      </trkpt>
      <trkpt lat="46.081448" lon="8.277643">
        <ele>239.3999939</ele>
        <time>2010-03-31T10:03:00Z</time>
      </trkpt>
      <trkpt lat="46.081364" lon="8.277380">
        <ele>239.8000031</ele>
        <time>2010-03-31T10:03:04Z</time>
      </trkpt>
      <trkpt lat="46.081318" lon="8.277032">
        <ele>239.8000031</ele>
        <time>2010-03-31T10:03:09Z</time>
      </trkpt>
      <trkpt lat="46.081151" lon="8.276890">
        <ele>239.3999939</ele>
        <time>2010-03-31T10:03:14Z</time>
      </trkpt>
      <trkpt lat="46.080644" lon="8.277038">
        <ele>239.6000061</ele>
        <time>2010-03-31T10:03:24Z</time>
      </trkpt>
      <trkpt lat="46.080002" lon="8.277140">
        <ele>239.3999939</ele>
        <time>2010-03-31T10:03:36Z</time>
      </trkpt>
      <trkpt lat="46.079724" lon="8.277379">
        <ele>239.8000031</ele>
        <time>2010-03-31T10:03:42Z</time>
      </trkpt>
      <trkpt lat="46.079383" lon="8.277735">
        <ele>241.1999969</ele>
        <time>2010-03-31T10:03:50Z</time>
      </trkpt>
      <trkpt lat="46.079007" lon="8.278017">
        <ele>242.0000000</ele>
        <time>2010-03-31T10:03:58Z</time>
      </trkpt>
      <trkpt lat="46.078825" lon="8.278076">
        <ele>241.6000061</ele>
        <time>2010-03-31T10:04:02Z</time>
      </trkpt>
      <trkpt lat="46.078728" lon="8.278012">
        <ele>241.3999939</ele>
        <time>2010-03-31T10:04:04Z</time>
      </trkpt>
      <trkpt lat="46.078535" lon="8.277754">
        <ele>241.0000000</ele>
        <time>2010-03-31T10:04:09Z</time>
      </trkpt>
      <trkpt lat="46.078392" lon="8.277440">
        <ele>240.6000061</ele>
        <time>2010-03-31T10:04:14Z</time>
      </trkpt>
      <trkpt lat="46.078140" lon="8.277036">
        <ele>240.1999969</ele>
        <time>2010-03-31T10:04:21Z</time>
      </trkpt>
      <trkpt lat="46.078072" lon="8.276912">
        <ele>239.6000061</ele>
        <time>2010-03-31T10:04:23Z</time>
      </trkpt>
      <trkpt lat="46.077866" lon="8.276700">
        <ele>239.3999939</ele>
        <time>2010-03-31T10:04:28Z</time>
      </trkpt>
      <trkpt lat="46.077568" lon="8.276545">
        <ele>240.1999969</ele>
        <time>2010-03-31T10:04:34Z</time>
      </trkpt>
      <trkpt lat="46.077335" lon="8.276258">
        <ele>240.1999969</ele>
        <time>2010-03-31T10:04:40Z</time>
      </trkpt>
      <trkpt lat="46.077170" lon="8.275985">
        <ele>239.8000031</ele>
        <time>2010-03-31T10:04:45Z</time>
      </trkpt>
      <trkpt lat="46.077094" lon="8.275640">
        <ele>239.6000061</ele>
        <time>2010-03-31T10:04:50Z</time>
      </trkpt>
      <trkpt lat="46.076989" lon="8.275424">
        <ele>239.6000061</ele>
        <time>2010-03-31T10:04:54Z</time>
      </trkpt>
      <trkpt lat="46.076800" lon="8.275405">
        <ele>239.3999939</ele>
        <time>2010-03-31T10:04:58Z</time>
      </trkpt>
      <trkpt lat="46.076674" lon="8.275294">
        <ele>239.3999939</ele>
        <time>2010-03-31T10:05:01Z</time>
      </trkpt>
      <trkpt lat="46.076630" lon="8.275011">
        <ele>239.0000000</ele>
        <time>2010-03-31T10:05:05Z</time>
      </trkpt>
      <trkpt lat="46.076580" lon="8.274555">
        <ele>240.1999969</ele>
        <time>2010-03-31T10:05:12Z</time>
      </trkpt>
      <trkpt lat="46.076476" lon="8.274327">
        <ele>240.3999939</ele>
        <time>2010-03-31T10:05:18Z</time>
      </trkpt>
      <trkpt lat="46.076403" lon="8.274153">
        <ele>242.6000061</ele>
        <time>2010-03-31T10:08:00Z</time>
      </trkpt>
      <trkpt lat="46.076484" lon="8.273773">
        <ele>242.0000000</ele>
        <time>2010-03-31T10:08:06Z</time>
      </trkpt>
      <trkpt lat="46.076571" lon="8.273503">
        <ele>242.1999969</ele>
        <time>2010-03-31T10:08:12Z</time>
      </trkpt>
      <trkpt lat="46.076002" lon="8.272802">
        <ele>242.0000000</ele>
        <time>2010-03-31T10:08:29Z</time>
      </trkpt>
      <trkpt lat="46.075590" lon="8.272357">
        <ele>242.8000031</ele>
        <time>2010-03-31T10:08:39Z</time>
      </trkpt>
      <trkpt lat="46.075218" lon="8.271965">
        <ele>243.8000031</ele>
        <time>2010-03-31T10:08:48Z</time>
      </trkpt>
      <trkpt lat="46.074983" lon="8.271577">
        <ele>244.1999969</ele>
        <time>2010-03-31T10:08:55Z</time>
      </trkpt>
      <trkpt lat="46.074730" lon="8.271093">
        <ele>244.6000061</ele>
        <time>2010-03-31T10:09:03Z</time>
      </trkpt>
      <trkpt lat="46.074444" lon="8.270553">
        <ele>245.3999939</ele>
        <time>2010-03-31T10:09:12Z</time>
      </trkpt>
      <trkpt lat="46.074161" lon="8.270024">
        <ele>246.8000031</ele>
        <time>2010-03-31T10:09:21Z</time>
      </trkpt>
      <trkpt lat="46.073915" lon="8.269544">
        <ele>247.8000031</ele>
        <time>2010-03-31T10:09:29Z</time>
      </trkpt>
      <trkpt lat="46.073675" lon="8.269055">
        <ele>248.6000061</ele>
        <time>2010-03-31T10:09:37Z</time>
      </trkpt>
      <trkpt lat="46.073306" lon="8.268337">
        <ele>250.0000000</ele>
        <time>2010-03-31T10:09:49Z</time>
      </trkpt>
      <trkpt lat="46.073110" lon="8.267999">
        <ele>250.1999969</ele>
        <time>2010-03-31T10:09:55Z</time>
      </trkpt>
      <trkpt lat="46.073031" lon="8.267902">
        <ele>250.3999939</ele>
        <time>2010-03-31T10:09:57Z</time>
      </trkpt>
      <trkpt lat="46.072748" lon="8.267723">
        <ele>250.8000031</ele>
        <time>2010-03-31T10:10:03Z</time>
      </trkpt>
      <trkpt lat="46.072045" lon="8.267185">
        <ele>253.3999939</ele>
        <time>2010-03-31T10:10:25Z</time>
      </trkpt>
      <trkpt lat="46.072125" lon="8.266972">
        <ele>252.8000031</ele>
        <time>2010-03-31T10:10:32Z</time>
      </trkpt>
      <trkpt lat="46.072055" lon="8.266778">
        <ele>252.8000031</ele>
        <time>2010-03-31T10:10:37Z</time>
      </trkpt>
      <trkpt lat="46.071913" lon="8.266706">
        <ele>253.1999969</ele>
        <time>2010-03-31T10:10:41Z</time>
      </trkpt>
      <trkpt lat="46.071803" lon="8.266762">
        <ele>253.8000031</ele>
        <time>2010-03-31T10:10:46Z</time>
      </trkpt>
      <trkpt lat="46.071685" lon="8.267025">
        <ele>249.1999969</ele>
        <time>2010-03-31T10:13:22Z</time>
      </trkpt>
      <trkpt lat="46.071342" lon="8.267169">
        <ele>249.6000061</ele>
        <time>2010-03-31T10:13:30Z</time>
      </trkpt>
      <trkpt lat="46.070911" lon="8.267334">
        <ele>250.0000000</ele>
        <time>2010-03-31T10:13:40Z</time>
      </trkpt>
      <trkpt lat="46.070774" lon="8.267080">
        <ele>249.6000061</ele>
        <time>2010-03-31T10:13:46Z</time>
      </trkpt>
      <trkpt lat="46.070691" lon="8.266903">
        <ele>249.8000031</ele>
        <time>2010-03-31T10:13:49Z</time>
      </trkpt>
      <trkpt lat="46.070560" lon="8.266622">
        <ele>250.0000000</ele>
        <time>2010-03-31T10:13:54Z</time>
      </trkpt>
      <trkpt lat="46.070463" lon="8.266480">
        <ele>249.6000061</ele>
        <time>2010-03-31T10:13:57Z</time>
      </trkpt>
      <trkpt lat="46.070266" lon="8.266242">
        <ele>249.3999939</ele>
        <time>2010-03-31T10:14:03Z</time>
      </trkpt>
      <trkpt lat="46.070271" lon="8.265831">
        <ele>251.1999969</ele>
        <time>2010-03-31T10:14:09Z</time>
      </trkpt>
      <trkpt lat="46.070220" lon="8.265068">
        <ele>254.0000000</ele>
        <time>2010-03-31T10:14:21Z</time>
      </trkpt>
      <trkpt lat="46.070185" lon="8.264519">
        <ele>256.0000000</ele>
        <time>2010-03-31T10:14:30Z</time>
      </trkpt>
      <trkpt lat="46.070162" lon="8.264080">
        <ele>256.6000061</ele>
        <time>2010-03-31T10:14:37Z</time>
      </trkpt>
      <trkpt lat="46.070120" lon="8.263786">
        <ele>257.6000061</ele>
        <time>2010-03-31T10:14:42Z</time>
      </trkpt>
      <trkpt lat="46.070127" lon="8.263284">
        <ele>258.0000000</ele>
        <time>2010-03-31T10:14:51Z</time>
      </trkpt>
      <trkpt lat="46.070112" lon="8.262784">
        <ele>258.7999878</ele>
        <time>2010-03-31T10:15:04Z</time>
      </trkpt>
      <trkpt lat="46.070003" lon="8.262683">
        <ele>255.8000031</ele>
        <time>2010-03-31T10:16:03Z</time>
      </trkpt>
      <trkpt lat="46.069842" lon="8.262717">
        <ele>256.3999939</ele>
        <time>2010-03-31T10:16:09Z</time>
      </trkpt>
      <trkpt lat="46.069684" lon="8.262725">
        <ele>256.7999878</ele>
        <time>2010-03-31T10:16:17Z</time>
      </trkpt>
      <trkpt lat="46.069485" lon="8.262778">
        <ele>257.7999878</ele>
        <time>2010-03-31T10:16:57Z</time>
      </trkpt>
      <trkpt lat="46.069130" lon="8.262813">
        <ele>258.0000000</ele>
        <time>2010-03-31T10:17:05Z</time>
      </trkpt>
      <trkpt lat="46.068604" lon="8.262866">
        <ele>257.6000061</ele>
        <time>2010-03-31T10:17:15Z</time>
      </trkpt>
      <trkpt lat="46.067966" lon="8.262934">
        <ele>257.0000000</ele>
        <time>2010-03-31T10:17:27Z</time>
      </trkpt>
      <trkpt lat="46.067467" lon="8.262973">
        <ele>256.6000061</ele>
        <time>2010-03-31T10:17:36Z</time>
      </trkpt>
      <trkpt lat="46.067157" lon="8.262922">
        <ele>256.3999939</ele>
        <time>2010-03-31T10:17:42Z</time>
      </trkpt>
      <trkpt lat="46.066825" lon="8.262726">
        <ele>256.6000061</ele>
        <time>2010-03-31T10:17:49Z</time>
      </trkpt>
      <trkpt lat="46.066436" lon="8.262416">
        <ele>256.7999878</ele>
        <time>2010-03-31T10:17:58Z</time>
      </trkpt>
      <trkpt lat="46.066302" lon="8.262338">
        <ele>257.0000000</ele>
        <time>2010-03-31T10:18:01Z</time>
      </trkpt>
      <trkpt lat="46.066088" lon="8.262378">
        <ele>257.6000061</ele>
        <time>2010-03-31T10:18:06Z</time>
      </trkpt>
      <trkpt lat="46.065728" lon="8.263485">
        <ele>264.6000061</ele>
        <time>2010-03-31T10:18:23Z</time>
      </trkpt>
      <trkpt lat="46.065563" lon="8.263890">
        <ele>263.0000000</ele>
        <time>2010-03-31T10:18:29Z</time>
      </trkpt>
      <trkpt lat="46.065408" lon="8.264258">
        <ele>262.3999939</ele>
        <time>2010-03-31T10:18:35Z</time>
      </trkpt>
      <trkpt lat="46.065340" lon="8.264437">
        <ele>261.2000122</ele>
        <time>2010-03-31T10:18:38Z</time>
      </trkpt>
      <trkpt lat="46.065260" lon="8.264604">
        <ele>258.6000061</ele>
        <time>2010-03-31T10:18:42Z</time>
      </trkpt>
      <trkpt lat="46.065359" lon="8.264797">
        <ele>256.2000122</ele>
        <time>2010-03-31T10:18:48Z</time>
      </trkpt>
      <trkpt lat="46.065625" lon="8.264996">
        <ele>255.1999969</ele>
        <time>2010-03-31T10:18:56Z</time>
      </trkpt>
      <trkpt lat="46.065934" lon="8.265212">
        <ele>254.6000061</ele>
        <time>2010-03-31T10:19:03Z</time>
      </trkpt>
      <trkpt lat="46.066444" lon="8.265428">
        <ele>254.0000000</ele>
        <time>2010-03-31T10:19:13Z</time>
      </trkpt>
      <trkpt lat="46.066775" lon="8.265546">
        <ele>253.1999969</ele>
        <time>2010-03-31T10:19:20Z</time>
      </trkpt>
      <trkpt lat="46.066861" lon="8.265702">
        <ele>252.6000061</ele>
        <time>2010-03-31T10:19:24Z</time>
      </trkpt>
      <trkpt lat="46.066825" lon="8.265925">
        <ele>252.1999969</ele>
        <time>2010-03-31T10:19:30Z</time>
      </trkpt>
      <trkpt lat="46.066751" lon="8.266123">
        <ele>251.3999939</ele>
        <time>2010-03-31T10:19:36Z</time>
      </trkpt>
      <trkpt lat="46.066618" lon="8.266094">
        <ele>251.0000000</ele>
        <time>2010-03-31T10:19:40Z</time>
      </trkpt>
      <trkpt lat="46.066335" lon="8.265921">
        <ele>250.8000031</ele>
        <time>2010-03-31T10:19:47Z</time>
      </trkpt>
      <trkpt lat="46.065888" lon="8.265741">
        <ele>251.6000061</ele>
        <time>2010-03-31T10:19:56Z</time>
      </trkpt>
      <trkpt lat="46.065341" lon="8.265496">
        <ele>251.8000031</ele>
        <time>2010-03-31T10:20:07Z</time>
      </trkpt>
      <trkpt lat="46.065055" lon="8.265349">
        <ele>251.3999939</ele>
        <time>2010-03-31T10:20:13Z</time>
      </trkpt>
      <trkpt lat="46.064895" lon="8.265444">
        <ele>252.0000000</ele>
        <time>2010-03-31T10:20:17Z</time>
      </trkpt>
      <trkpt lat="46.064823" lon="8.265632">
        <ele>251.3999939</ele>
        <time>2010-03-31T10:20:20Z</time>
      </trkpt>
      <trkpt lat="46.064514" lon="8.266169">
        <ele>250.3999939</ele>
        <time>2010-03-31T10:20:29Z</time>
      </trkpt>
      <trkpt lat="46.064291" lon="8.266551">
        <ele>249.3999939</ele>
        <time>2010-03-31T10:20:35Z</time>
      </trkpt>
      <trkpt lat="46.063992" lon="8.267187">
        <ele>249.1999969</ele>
        <time>2010-03-31T10:20:44Z</time>
      </trkpt>
      <trkpt lat="46.063740" lon="8.267839">
        <ele>248.6000061</ele>
        <time>2010-03-31T10:20:52Z</time>
      </trkpt>
      <trkpt lat="46.063491" lon="8.268446">
        <ele>246.0000000</ele>
        <time>2010-03-31T10:20:59Z</time>
      </trkpt>
      <trkpt lat="46.063110" lon="8.269240">
        <ele>242.8000031</ele>
        <time>2010-03-31T10:21:09Z</time>
      </trkpt>
      <trkpt lat="46.062699" lon="8.269959">
        <ele>241.3999939</ele>
        <time>2010-03-31T10:21:19Z</time>
      </trkpt>
      <trkpt lat="46.062297" lon="8.270638">
        <ele>239.3999939</ele>
        <time>2010-03-31T10:21:29Z</time>
      </trkpt>
      <trkpt lat="46.062073" lon="8.271038">
        <ele>238.6000061</ele>
        <time>2010-03-31T10:21:35Z</time>
      </trkpt>
      <trkpt lat="46.061690" lon="8.271682">
        <ele>238.6000061</ele>
        <time>2010-03-31T10:21:45Z</time>
      </trkpt>
      <trkpt lat="46.061446" lon="8.272074">
        <ele>239.3999939</ele>
        <time>2010-03-31T10:21:52Z</time>
      </trkpt>
      <trkpt lat="46.061369" lon="8.272239">
        <ele>239.3999939</ele>
        <time>2010-03-31T10:21:58Z</time>
      </trkpt>
      <trkpt lat="46.061334" lon="8.272378">
        <ele>237.6000061</ele>
        <time>2010-03-31T10:22:16Z</time>
      </trkpt>
      <trkpt lat="46.061345" lon="8.272636">
        <ele>236.8000031</ele>
        <time>2010-03-31T10:22:20Z</time>
      </trkpt>
      <trkpt lat="46.061424" lon="8.272935">
        <ele>236.1999969</ele>
        <time>2010-03-31T10:22:24Z</time>
      </trkpt>
      <trkpt lat="46.061432" lon="8.273255">
        <ele>236.0000000</ele>
        <time>2010-03-31T10:22:28Z</time>
      </trkpt>
      <trkpt lat="46.061344" lon="8.273463">
        <ele>236.1999969</ele>
        <time>2010-03-31T10:22:31Z</time>
      </trkpt>
      <trkpt lat="46.061047" lon="8.273909">
        <ele>236.1999969</ele>
        <time>2010-03-31T10:22:39Z</time>
      </trkpt>
      <trkpt lat="46.060713" lon="8.274291">
        <ele>236.0000000</ele>
        <time>2010-03-31T10:22:47Z</time>
      </trkpt>
      <trkpt lat="46.060362" lon="8.274681">
        <ele>235.0000000</ele>
        <time>2010-03-31T10:22:55Z</time>
      </trkpt>
      <trkpt lat="46.059939" lon="8.275122">
        <ele>233.6000061</ele>
        <time>2010-03-31T10:23:04Z</time>
      </trkpt>
      <trkpt lat="46.059524" lon="8.275560">
        <ele>232.8000031</ele>
        <time>2010-03-31T10:23:13Z</time>
      </trkpt>
      <trkpt lat="46.059400" lon="8.275761">
        <ele>233.8000031</ele>
        <time>2010-03-31T10:23:17Z</time>
      </trkpt>
      <trkpt lat="46.059282" lon="8.276119">
        <ele>234.1999969</ele>
        <time>2010-03-31T10:23:26Z</time>
      </trkpt>
      <trkpt lat="46.059167" lon="8.276089">
        <ele>235.0000000</ele>
        <time>2010-03-31T10:23:29Z</time>
      </trkpt>
      <trkpt lat="46.058853" lon="8.275949">
        <ele>236.0000000</ele>
        <time>2010-03-31T10:23:37Z</time>
      </trkpt>
      <trkpt lat="46.058524" lon="8.275767">
        <ele>236.0000000</ele>
        <time>2010-03-31T10:23:45Z</time>
      </trkpt>
      <trkpt lat="46.058192" lon="8.275539">
        <ele>237.0000000</ele>
        <time>2010-03-31T10:23:53Z</time>
      </trkpt>
      <trkpt lat="46.057810" lon="8.275208">
        <ele>237.1999969</ele>
        <time>2010-03-31T10:24:02Z</time>
      </trkpt>
      <trkpt lat="46.057443" lon="8.274793">
        <ele>237.0000000</ele>
        <time>2010-03-31T10:24:11Z</time>
      </trkpt>
      <trkpt lat="46.057075" lon="8.274358">
        <ele>237.6000061</ele>
        <time>2010-03-31T10:24:20Z</time>
      </trkpt>
      <trkpt lat="46.056622" lon="8.273849">
        <ele>237.3999939</ele>
        <time>2010-03-31T10:24:31Z</time>
      </trkpt>
      <trkpt lat="46.056341" lon="8.273544">
        <ele>237.6000061</ele>
        <time>2010-03-31T10:24:38Z</time>
      </trkpt>
      <trkpt lat="46.055882" lon="8.273061">
        <ele>237.8000031</ele>
        <time>2010-03-31T10:24:49Z</time>
      </trkpt>
      <trkpt lat="46.055492" lon="8.272655">
        <ele>237.6000061</ele>
        <time>2010-03-31T10:24:58Z</time>
      </trkpt>
      <trkpt lat="46.055021" lon="8.272259">
        <ele>237.0000000</ele>
        <time>2010-03-31T10:25:08Z</time>
      </trkpt>
      <trkpt lat="46.054615" lon="8.272044">
        <ele>236.8000031</ele>
        <time>2010-03-31T10:25:16Z</time>
      </trkpt>
      <trkpt lat="46.054309" lon="8.271827">
        <ele>236.1999969</ele>
        <time>2010-03-31T10:25:23Z</time>
      </trkpt>
      <trkpt lat="46.054069" lon="8.271671">
        <ele>235.8000031</ele>
        <time>2010-03-31T10:25:30Z</time>
      </trkpt>
      <trkpt lat="46.053746" lon="8.271453">
        <ele>237.1999969</ele>
        <time>2010-03-31T10:26:05Z</time>
      </trkpt>
      <trkpt lat="46.053509" lon="8.271289">
        <ele>236.0000000</ele>
        <time>2010-03-31T10:26:13Z</time>
      </trkpt>
      <trkpt lat="46.053262" lon="8.271124">
        <ele>235.8000031</ele>
        <time>2010-03-31T10:26:20Z</time>
      </trkpt>
      <trkpt lat="46.052949" lon="8.270923">
        <ele>236.0000000</ele>
        <time>2010-03-31T10:26:28Z</time>
      </trkpt>
      <trkpt lat="46.052707" lon="8.270791">
        <ele>235.6000061</ele>
        <time>2010-03-31T10:26:34Z</time>
      </trkpt>
      <trkpt lat="46.052362" lon="8.270656">
        <ele>235.0000000</ele>
        <time>2010-03-31T10:26:42Z</time>
      </trkpt>
      <trkpt lat="46.051973" lon="8.270520">
        <ele>234.8000031</ele>
        <time>2010-03-31T10:26:51Z</time>
      </trkpt>
      <trkpt lat="46.051569" lon="8.270386">
        <ele>235.0000000</ele>
        <time>2010-03-31T10:27:00Z</time>
      </trkpt>
      <trkpt lat="46.051061" lon="8.270198">
        <ele>234.8000031</ele>
        <time>2010-03-31T10:27:11Z</time>
      </trkpt>
      <trkpt lat="46.050555" lon="8.269966">
        <ele>235.0000000</ele>
        <time>2010-03-31T10:27:22Z</time>
      </trkpt>
      <trkpt lat="46.050156" lon="8.269755">
        <ele>235.3999939</ele>
        <time>2010-03-31T10:27:31Z</time>
      </trkpt>
      <trkpt lat="46.050029" lon="8.269665">
        <ele>235.3999939</ele>
        <time>2010-03-31T10:27:34Z</time>
      </trkpt>
      <trkpt lat="46.049690" lon="8.269440">
        <ele>235.0000000</ele>
        <time>2010-03-31T10:27:42Z</time>
      </trkpt>
      <trkpt lat="46.049608" lon="8.269377">
        <ele>235.1999969</ele>
        <time>2010-03-31T10:27:44Z</time>
      </trkpt>
      <trkpt lat="46.049318" lon="8.269156">
        <ele>235.8000031</ele>
        <time>2010-03-31T10:27:51Z</time>
      </trkpt>
      <trkpt lat="46.049080" lon="8.268951">
        <ele>236.1999969</ele>
        <time>2010-03-31T10:27:57Z</time>
      </trkpt>
      <trkpt lat="46.048443" lon="8.268258">
        <ele>237.0000000</ele>
        <time>2010-03-31T10:28:14Z</time>
      </trkpt>
      <trkpt lat="46.048157" lon="8.267912">
        <ele>237.1999969</ele>
        <time>2010-03-31T10:28:22Z</time>
      </trkpt>
      <trkpt lat="46.048053" lon="8.267769">
        <ele>237.3999939</ele>
        <time>2010-03-31T10:28:25Z</time>
      </trkpt>
      <trkpt lat="46.047756" lon="8.267425">
        <ele>238.1999969</ele>
        <time>2010-03-31T10:28:33Z</time>
      </trkpt>
      <trkpt lat="46.047475" lon="8.267082">
        <ele>239.3999939</ele>
        <time>2010-03-31T10:28:41Z</time>
      </trkpt>
      <trkpt lat="46.047361" lon="8.266966">
        <ele>239.1999969</ele>
        <time>2010-03-31T10:28:44Z</time>
      </trkpt>
      <trkpt lat="46.046993" lon="8.266538">
        <ele>239.1999969</ele>
        <time>2010-03-31T10:28:54Z</time>
      </trkpt>
      <trkpt lat="46.046704" lon="8.266181">
        <ele>239.1999969</ele>
        <time>2010-03-31T10:29:02Z</time>
      </trkpt>
      <trkpt lat="46.046417" lon="8.265836">
        <ele>238.8000031</ele>
        <time>2010-03-31T10:29:10Z</time>
      </trkpt>
      <trkpt lat="46.046261" lon="8.265384">
        <ele>236.0000000</ele>
        <time>2010-03-31T10:29:18Z</time>
      </trkpt>
      <trkpt lat="46.046269" lon="8.265162">
        <ele>234.1999969</ele>
        <time>2010-03-31T10:29:22Z</time>
      </trkpt>
      <trkpt lat="46.046245" lon="8.264594">
        <ele>232.6000061</ele>
        <time>2010-03-31T10:29:30Z</time>
      </trkpt>
      <trkpt lat="46.045811" lon="8.264357">
        <ele>231.0000000</ele>
        <time>2010-03-31T10:29:39Z</time>
      </trkpt>
      <trkpt lat="46.045347" lon="8.264165">
        <ele>230.1999969</ele>
        <time>2010-03-31T10:29:48Z</time>
      </trkpt>
      <trkpt lat="46.045037" lon="8.264075">
        <ele>230.3999939</ele>
        <time>2010-03-31T10:29:54Z</time>
      </trkpt>
      <trkpt lat="46.044879" lon="8.264066">
        <ele>230.3999939</ele>
        <time>2010-03-31T10:29:57Z</time>
      </trkpt>
      <trkpt lat="46.044618" lon="8.264027">
        <ele>230.6000061</ele>
        <time>2010-03-31T10:30:02Z</time>
      </trkpt>
      <trkpt lat="46.044403" lon="8.264020">
        <ele>230.3999939</ele>
        <time>2010-03-31T10:30:06Z</time>
      </trkpt>
      <trkpt lat="46.043855" lon="8.264096">
        <ele>229.8000031</ele>
        <time>2010-03-31T10:30:16Z</time>
      </trkpt>
      <trkpt lat="46.043705" lon="8.263857">
        <ele>229.8000031</ele>
        <time>2010-03-31T10:30:21Z</time>
      </trkpt>
      <trkpt lat="46.043618" lon="8.263052">
        <ele>230.0000000</ele>
        <time>2010-03-31T10:30:32Z</time>
      </trkpt>
      <trkpt lat="46.043684" lon="8.262696">
        <ele>230.6000061</ele>
        <time>2010-03-31T10:30:37Z</time>
      </trkpt>
      <trkpt lat="46.043923" lon="8.262267">
        <ele>232.0000000</ele>
        <time>2010-03-31T10:30:45Z</time>
      </trkpt>
      <trkpt lat="46.044014" lon="8.262136">
        <ele>232.3999939</ele>
        <time>2010-03-31T10:30:48Z</time>
      </trkpt>
      <trkpt lat="46.044041" lon="8.261870">
        <ele>231.6000061</ele>
        <time>2010-03-31T10:30:54Z</time>
      </trkpt>
      <trkpt lat="46.043829" lon="8.261460">
        <ele>231.0000000</ele>
        <time>2010-03-31T10:31:02Z</time>
      </trkpt>
      <trkpt lat="46.043759" lon="8.261378">
        <ele>228.3999939</ele>
        <time>2010-03-31T10:32:45Z</time>
      </trkpt>
      <trkpt lat="46.043606" lon="8.261568">
        <ele>228.6000061</ele>
        <time>2010-03-31T10:32:50Z</time>
      </trkpt>
      <trkpt lat="46.043211" lon="8.261793">
        <ele>229.6000061</ele>
        <time>2010-03-31T10:32:59Z</time>
      </trkpt>
      <trkpt lat="46.042763" lon="8.261901">
        <ele>231.0000000</ele>
        <time>2010-03-31T10:33:08Z</time>
      </trkpt>
      <trkpt lat="46.042137" lon="8.261992">
        <ele>231.0000000</ele>
        <time>2010-03-31T10:33:20Z</time>
      </trkpt>
      <trkpt lat="46.041601" lon="8.262081">
        <ele>231.3999939</ele>
        <time>2010-03-31T10:33:30Z</time>
      </trkpt>
      <trkpt lat="46.041055" lon="8.262183">
        <ele>233.0000000</ele>
        <time>2010-03-31T10:33:40Z</time>
      </trkpt>
      <trkpt lat="46.040510" lon="8.262264">
        <ele>232.1999969</ele>
        <time>2010-03-31T10:33:50Z</time>
      </trkpt>
      <trkpt lat="46.040020" lon="8.262337">
        <ele>231.8000031</ele>
        <time>2010-03-31T10:33:59Z</time>
      </trkpt>
      <trkpt lat="46.039639" lon="8.262308">
        <ele>232.6000061</ele>
        <time>2010-03-31T10:34:06Z</time>
      </trkpt>
      <trkpt lat="46.039169" lon="8.262107">
        <ele>232.8000031</ele>
        <time>2010-03-31T10:34:15Z</time>
      </trkpt>
      <trkpt lat="46.038863" lon="8.261964">
        <ele>232.1999969</ele>
        <time>2010-03-31T10:34:22Z</time>
      </trkpt>
      <trkpt lat="46.038580" lon="8.261820">
        <ele>231.3999939</ele>
        <time>2010-03-31T10:34:29Z</time>
      </trkpt>
      <trkpt lat="46.038317" lon="8.261737">
        <ele>231.0000000</ele>
        <time>2010-03-31T10:34:36Z</time>
      </trkpt>
      <trkpt lat="46.038086" lon="8.261654">
        <ele>230.3999939</ele>
        <time>2010-03-31T10:34:43Z</time>
      </trkpt>
      <trkpt lat="46.037914" lon="8.261596">
        <ele>230.3999939</ele>
        <time>2010-03-31T10:34:48Z</time>
      </trkpt>
      <trkpt lat="46.037713" lon="8.261533">
        <ele>230.1999969</ele>
        <time>2010-03-31T10:34:54Z</time>
      </trkpt>
      <trkpt lat="46.037492" lon="8.261479">
        <ele>230.1999969</ele>
        <time>2010-03-31T10:35:01Z</time>
      </trkpt>
      <trkpt lat="46.037294" lon="8.261401">
        <ele>230.1999969</ele>
        <time>2010-03-31T10:35:09Z</time>
      </trkpt>
      <trkpt lat="46.037101" lon="8.261411">
        <ele>230.1999969</ele>
        <time>2010-03-31T10:35:16Z</time>
      </trkpt>
      <trkpt lat="46.036890" lon="8.261391">
        <ele>230.1999969</ele>
        <time>2010-03-31T10:35:23Z</time>
      </trkpt>
      <trkpt lat="46.036631" lon="8.261479">
        <ele>229.8000031</ele>
        <time>2010-03-31T10:35:30Z</time>
      </trkpt>
      <trkpt lat="46.036393" lon="8.261564">
        <ele>230.0000000</ele>
        <time>2010-03-31T10:35:37Z</time>
      </trkpt>
      <trkpt lat="46.036233" lon="8.261618">
        <ele>230.0000000</ele>
        <time>2010-03-31T10:35:42Z</time>
      </trkpt>
      <trkpt lat="46.035761" lon="8.261756">
        <ele>230.1999969</ele>
        <time>2010-03-31T10:35:56Z</time>
      </trkpt>
      <trkpt lat="46.035327" lon="8.261887">
        <ele>230.6000061</ele>
        <time>2010-03-31T10:36:09Z</time>
      </trkpt>
      <trkpt lat="46.034932" lon="8.261991">
        <ele>231.1999969</ele>
        <time>2010-03-31T10:36:20Z</time>
      </trkpt>
      <trkpt lat="46.034639" lon="8.262076">
        <ele>231.3999939</ele>
        <time>2010-03-31T10:36:28Z</time>
      </trkpt>
      <trkpt lat="46.034320" lon="8.262186">
        <ele>231.8000031</ele>
        <time>2010-03-31T10:36:37Z</time>
      </trkpt>
      <trkpt lat="46.034059" lon="8.262240">
        <ele>232.0000000</ele>
        <time>2010-03-31T10:36:44Z</time>
      </trkpt>
      <trkpt lat="46.033757" lon="8.262290">
        <ele>232.1999969</ele>
        <time>2010-03-31T10:36:52Z</time>
      </trkpt>
      <trkpt lat="46.033407" lon="8.262327">
        <ele>232.3999939</ele>
        <time>2010-03-31T10:37:01Z</time>
      </trkpt>
      <trkpt lat="46.033056" lon="8.262309">
        <ele>233.1999969</ele>
        <time>2010-03-31T10:37:10Z</time>
      </trkpt>
      <trkpt lat="46.032607" lon="8.262224">
        <ele>233.1999969</ele>
        <time>2010-03-31T10:37:21Z</time>
      </trkpt>
      <trkpt lat="46.032137" lon="8.262075">
        <ele>233.3999939</ele>
        <time>2010-03-31T10:37:33Z</time>
      </trkpt>
      <trkpt lat="46.031844" lon="8.261964">
        <ele>234.0000000</ele>
        <time>2010-03-31T10:37:41Z</time>
      </trkpt>
      <trkpt lat="46.031651" lon="8.261906">
        <ele>234.6000061</ele>
        <time>2010-03-31T10:37:47Z</time>
      </trkpt>
      <trkpt lat="46.031318" lon="8.261790">
        <ele>234.6000061</ele>
        <time>2010-03-31T10:37:56Z</time>
      </trkpt>
      <trkpt lat="46.031046" lon="8.261683">
        <ele>234.6000061</ele>
        <time>2010-03-31T10:38:03Z</time>
      </trkpt>
      <trkpt lat="46.030680" lon="8.261514">
        <ele>235.6000061</ele>
        <time>2010-03-31T10:38:13Z</time>
      </trkpt>
      <trkpt lat="46.030318" lon="8.261366">
        <ele>236.6000061</ele>
        <time>2010-03-31T10:38:22Z</time>
      </trkpt>
      <trkpt lat="46.029896" lon="8.261197">
        <ele>236.8000031</ele>
        <time>2010-03-31T10:38:32Z</time>
      </trkpt>
      <trkpt lat="46.029428" lon="8.261001">
        <ele>237.6000061</ele>
        <time>2010-03-31T10:38:43Z</time>
      </trkpt>
      <trkpt lat="46.029010" lon="8.260839">
        <ele>238.6000061</ele>
        <time>2010-03-31T10:38:53Z</time>
      </trkpt>
      <trkpt lat="46.028492" lon="8.260670">
        <ele>240.6000061</ele>
        <time>2010-03-31T10:39:05Z</time>
      </trkpt>
      <trkpt lat="46.028040" lon="8.260643">
        <ele>241.1999969</ele>
        <time>2010-03-31T10:39:15Z</time>
      </trkpt>
      <trkpt lat="46.027542" lon="8.260665">
        <ele>241.3999939</ele>
        <time>2010-03-31T10:39:26Z</time>
      </trkpt>
      <trkpt lat="46.027141" lon="8.260736">
        <ele>242.6000061</ele>
        <time>2010-03-31T10:39:35Z</time>
      </trkpt>
      <trkpt lat="46.026915" lon="8.260841">
        <ele>242.6000061</ele>
        <time>2010-03-31T10:39:41Z</time>
      </trkpt>
      <trkpt lat="46.026733" lon="8.260990">
        <ele>242.6000061</ele>
        <time>2010-03-31T10:39:46Z</time>
      </trkpt>
      <trkpt lat="46.026525" lon="8.261015">
        <ele>242.6000061</ele>
        <time>2010-03-31T10:39:51Z</time>
      </trkpt>
      <trkpt lat="46.024947" lon="8.261286">
        <ele>244.6000061</ele>
        <time>2010-03-31T10:40:27Z</time>
      </trkpt>
      <trkpt lat="46.024316" lon="8.261445">
        <ele>245.3999939</ele>
        <time>2010-03-31T10:40:41Z</time>
      </trkpt>
      <trkpt lat="46.023926" lon="8.261553">
        <ele>244.8000031</ele>
        <time>2010-03-31T10:40:49Z</time>
      </trkpt>
      <trkpt lat="46.023741" lon="8.261589">
        <ele>245.1999969</ele>
        <time>2010-03-31T10:40:53Z</time>
      </trkpt>
      <trkpt lat="46.023574" lon="8.261641">
        <ele>246.1999969</ele>
        <time>2010-03-31T10:40:57Z</time>
      </trkpt>
      <trkpt lat="46.023217" lon="8.261876">
        <ele>246.8000031</ele>
        <time>2010-03-31T10:41:06Z</time>
      </trkpt>
      <trkpt lat="46.023078" lon="8.261772">
        <ele>247.8000031</ele>
        <time>2010-03-31T10:41:11Z</time>
      </trkpt>
      <trkpt lat="46.022957" lon="8.261411">
        <ele>249.6000061</ele>
        <time>2010-03-31T10:41:18Z</time>
      </trkpt>
      <trkpt lat="46.022809" lon="8.261046">
        <ele>250.1999969</ele>
        <time>2010-03-31T10:41:25Z</time>
      </trkpt>
      <trkpt lat="46.022591" lon="8.260624">
        <ele>251.0000000</ele>
        <time>2010-03-31T10:41:34Z</time>
      </trkpt>
      <trkpt lat="46.022413" lon="8.260223">
        <ele>250.8000031</ele>
        <time>2010-03-31T10:41:42Z</time>
      </trkpt>
      <trkpt lat="46.022176" lon="8.259613">
        <ele>250.6000061</ele>
        <time>2010-03-31T10:41:54Z</time>
      </trkpt>
      <trkpt lat="46.021901" lon="8.259015">
        <ele>250.6000061</ele>
        <time>2010-03-31T10:42:06Z</time>
      </trkpt>
      <trkpt lat="46.021691" lon="8.258570">
        <ele>250.8000031</ele>
        <time>2010-03-31T10:42:15Z</time>
      </trkpt>
      <trkpt lat="46.021491" lon="8.258119">
        <ele>251.0000000</ele>
        <time>2010-03-31T10:42:24Z</time>
      </trkpt>
      <trkpt lat="46.021281" lon="8.257603">
        <ele>251.6000061</ele>
        <time>2010-03-31T10:42:34Z</time>
      </trkpt>
      <trkpt lat="46.021094" lon="8.257231">
        <ele>253.0000000</ele>
        <time>2010-03-31T10:42:42Z</time>
      </trkpt>
      <trkpt lat="46.020882" lon="8.257010">
        <ele>256.6000061</ele>
        <time>2010-03-31T10:42:49Z</time>
      </trkpt>
      <trkpt lat="46.020139" lon="8.257795">
        <ele>256.2000122</ele>
        <time>2010-03-31T10:44:47Z</time>
      </trkpt>
      <trkpt lat="46.020004" lon="8.258041">
        <ele>256.2000122</ele>
        <time>2010-03-31T10:44:52Z</time>
      </trkpt>
      <trkpt lat="46.019744" lon="8.258485">
        <ele>257.7999878</ele>
        <time>2010-03-31T10:44:59Z</time>
      </trkpt>
      <trkpt lat="46.019532" lon="8.258893">
        <ele>259.7999878</ele>
        <time>2010-03-31T10:45:05Z</time>
      </trkpt>
      <trkpt lat="46.019284" lon="8.259555">
        <ele>255.8000031</ele>
        <time>2010-03-31T10:45:14Z</time>
      </trkpt>
      <trkpt lat="46.019165" lon="8.259950">
        <ele>253.6000061</ele>
        <time>2010-03-31T10:45:19Z</time>
      </trkpt>
      <trkpt lat="46.019187" lon="8.260100">
        <ele>253.6000061</ele>
        <time>2010-03-31T10:45:21Z</time>
      </trkpt>
      <trkpt lat="46.019278" lon="8.260428">
        <ele>253.8000031</ele>
        <time>2010-03-31T10:45:26Z</time>
      </trkpt>
      <trkpt lat="46.019398" lon="8.260676">
        <ele>253.0000000</ele>
        <time>2010-03-31T10:45:31Z</time>
      </trkpt>
      <trkpt lat="46.019302" lon="8.261325">
        <ele>251.1999969</ele>
        <time>2010-03-31T10:45:41Z</time>
      </trkpt>
      <trkpt lat="46.019270" lon="8.261509">
        <ele>250.8000031</ele>
        <time>2010-03-31T10:45:44Z</time>
      </trkpt>
      <trkpt lat="46.019235" lon="8.261680">
        <ele>250.3999939</ele>
        <time>2010-03-31T10:45:47Z</time>
      </trkpt>
      <trkpt lat="46.019210" lon="8.261858">
        <ele>250.1999969</ele>
        <time>2010-03-31T10:45:50Z</time>
      </trkpt>
      <trkpt lat="46.019106" lon="8.261965">
        <ele>249.8000031</ele>
        <time>2010-03-31T10:45:54Z</time>
      </trkpt>
      <trkpt lat="46.018744" lon="8.262087">
        <ele>249.0000000</ele>
        <time>2010-03-31T10:46:03Z</time>
      </trkpt>
      <trkpt lat="46.018392" lon="8.262388">
        <ele>248.6000061</ele>
        <time>2010-03-31T10:46:11Z</time>
      </trkpt>
      <trkpt lat="46.018124" lon="8.262585">
        <ele>248.1999969</ele>
        <time>2010-03-31T10:46:17Z</time>
      </trkpt>
      <trkpt lat="46.017954" lon="8.262744">
        <ele>248.1999969</ele>
        <time>2010-03-31T10:46:21Z</time>
      </trkpt>
      <trkpt lat="46.017847" lon="8.262979">
        <ele>248.8000031</ele>
        <time>2010-03-31T10:46:25Z</time>
      </trkpt>
      <trkpt lat="46.017879" lon="8.263612">
        <ele>247.0000000</ele>
        <time>2010-03-31T10:46:33Z</time>
      </trkpt>
      <trkpt lat="46.017801" lon="8.263993">
        <ele>245.8000031</ele>
        <time>2010-03-31T10:46:38Z</time>
      </trkpt>
      <trkpt lat="46.017558" lon="8.264219">
        <ele>244.8000031</ele>
        <time>2010-03-31T10:46:43Z</time>
      </trkpt>
      <trkpt lat="46.017219" lon="8.264537">
        <ele>243.8000031</ele>
        <time>2010-03-31T10:46:50Z</time>
      </trkpt>
      <trkpt lat="46.016836" lon="8.264878">
        <ele>242.8000031</ele>
        <time>2010-03-31T10:46:58Z</time>
      </trkpt>
      <trkpt lat="46.016497" lon="8.265164">
        <ele>242.0000000</ele>
        <time>2010-03-31T10:47:05Z</time>
      </trkpt>
      <trkpt lat="46.016068" lon="8.265545">
        <ele>240.6000061</ele>
        <time>2010-03-31T10:47:13Z</time>
      </trkpt>
      <trkpt lat="46.015601" lon="8.265960">
        <ele>239.3999939</ele>
        <time>2010-03-31T10:47:21Z</time>
      </trkpt>
      <trkpt lat="46.014995" lon="8.266514">
        <ele>238.0000000</ele>
        <time>2010-03-31T10:47:31Z</time>
      </trkpt>
      <trkpt lat="46.014345" lon="8.267067">
        <ele>236.3999939</ele>
        <time>2010-03-31T10:47:42Z</time>
      </trkpt>
      <trkpt lat="46.013213" lon="8.268032">
        <ele>232.0000000</ele>
        <time>2010-03-31T10:50:50Z</time>
      </trkpt>
      <trkpt lat="46.012842" lon="8.268386">
        <ele>231.1999969</ele>
        <time>2010-03-31T10:50:58Z</time>
      </trkpt>
      <trkpt lat="46.012292" lon="8.268901">
        <ele>230.0000000</ele>
        <time>2010-03-31T10:51:09Z</time>
      </trkpt>
      <trkpt lat="46.011654" lon="8.269524">
        <ele>228.6000061</ele>
        <time>2010-03-31T10:51:22Z</time>
      </trkpt>
      <trkpt lat="46.011222" lon="8.270091">
        <ele>227.8000031</ele>
        <time>2010-03-31T10:51:32Z</time>
      </trkpt>
      <trkpt lat="46.010734" lon="8.270962">
        <ele>226.3999939</ele>
        <time>2010-03-31T10:51:45Z</time>
      </trkpt>
      <trkpt lat="46.010420" lon="8.271684">
        <ele>226.3999939</ele>
        <time>2010-03-31T10:51:55Z</time>
      </trkpt>
      <trkpt lat="46.010163" lon="8.272440">
        <ele>226.1999969</ele>
        <time>2010-03-31T10:52:05Z</time>
      </trkpt>
      <trkpt lat="46.009883" lon="8.273299">
        <ele>227.0000000</ele>
        <time>2010-03-31T10:52:17Z</time>
      </trkpt>
      <trkpt lat="46.009890" lon="8.273532">
        <ele>227.8000031</ele>
        <time>2010-03-31T10:52:21Z</time>
      </trkpt>
      <trkpt lat="46.009952" lon="8.273597">
        <ele>228.6000061</ele>
        <time>2010-03-31T10:52:26Z</time>
      </trkpt>
      <trkpt lat="46.010066" lon="8.273683">
        <ele>228.8000031</ele>
        <time>2010-03-31T10:55:14Z</time>
      </trkpt>
      <trkpt lat="46.010262" lon="8.273802">
        <ele>228.3999939</ele>
        <time>2010-03-31T10:55:19Z</time>
      </trkpt>
      <trkpt lat="46.010579" lon="8.274014">
        <ele>228.1999969</ele>
        <time>2010-03-31T10:55:26Z</time>
      </trkpt>
      <trkpt lat="46.010861" lon="8.274235">
        <ele>228.6000061</ele>
        <time>2010-03-31T10:55:33Z</time>
      </trkpt>
      <trkpt lat="46.011136" lon="8.274626">
        <ele>228.8000031</ele>
        <time>2010-03-31T10:55:41Z</time>
      </trkpt>
      <trkpt lat="46.011384" lon="8.274856">
        <ele>229.0000000</ele>
        <time>2010-03-31T10:55:47Z</time>
      </trkpt>
      <trkpt lat="46.011606" lon="8.274959">
        <ele>229.6000061</ele>
        <time>2010-03-31T10:55:52Z</time>
      </trkpt>
      <trkpt lat="46.011877" lon="8.274952">
        <ele>229.6000061</ele>
        <time>2010-03-31T10:56:22Z</time>
      </trkpt>
      <trkpt lat="46.012052" lon="8.274924">
        <ele>229.3999939</ele>
        <time>2010-03-31T10:56:27Z</time>
      </trkpt>
      <trkpt lat="46.012496" lon="8.274805">
        <ele>229.3999939</ele>
        <time>2010-03-31T10:56:37Z</time>
      </trkpt>
      <trkpt lat="46.013033" lon="8.274674">
        <ele>229.3999939</ele>
        <time>2010-03-31T10:56:48Z</time>
      </trkpt>
      <trkpt lat="46.013523" lon="8.274550">
        <ele>229.3999939</ele>
        <time>2010-03-31T10:56:58Z</time>
      </trkpt>
      <trkpt lat="46.014016" lon="8.274427">
        <ele>229.6000061</ele>
        <time>2010-03-31T10:57:08Z</time>
      </trkpt>
      <trkpt lat="46.014650" lon="8.274260">
        <ele>230.0000000</ele>
        <time>2010-03-31T10:57:21Z</time>
      </trkpt>
      <trkpt lat="46.015201" lon="8.274116">
        <ele>230.1999969</ele>
        <time>2010-03-31T10:57:32Z</time>
      </trkpt>
      <trkpt lat="46.015610" lon="8.274013">
        <ele>230.3999939</ele>
        <time>2010-03-31T10:57:40Z</time>
      </trkpt>
      <trkpt lat="46.016118" lon="8.273881">
        <ele>230.6000061</ele>
        <time>2010-03-31T10:57:50Z</time>
      </trkpt>
      <trkpt lat="46.016637" lon="8.273755">
        <ele>230.3999939</ele>
        <time>2010-03-31T10:58:00Z</time>
      </trkpt>
      <trkpt lat="46.016890" lon="8.273900">
        <ele>231.6000061</ele>
        <time>2010-03-31T10:58:06Z</time>
      </trkpt>
      <trkpt lat="46.017112" lon="8.274042">
        <ele>232.6000061</ele>
        <time>2010-03-31T10:58:13Z</time>
      </trkpt>
      <trkpt lat="46.017375" lon="8.274294">
        <ele>233.0000000</ele>
        <time>2010-03-31T10:58:21Z</time>
      </trkpt>
      <trkpt lat="46.017473" lon="8.274632">
        <ele>232.8000031</ele>
        <time>2010-03-31T10:58:27Z</time>
      </trkpt>
      <trkpt lat="46.017516" lon="8.274909">
        <ele>233.0000000</ele>
        <time>2010-03-31T10:58:33Z</time>
      </trkpt>
      <trkpt lat="46.017513" lon="8.275211">
        <ele>232.0000000</ele>
        <time>2010-03-31T10:58:37Z</time>
      </trkpt>
      <trkpt lat="46.017453" lon="8.275569">
        <ele>232.6000061</ele>
        <time>2010-03-31T10:58:42Z</time>
      </trkpt>
      <trkpt lat="46.017353" lon="8.275988">
        <ele>233.3999939</ele>
        <time>2010-03-31T10:58:49Z</time>
      </trkpt>
      <trkpt lat="46.017270" lon="8.276178">
        <ele>233.8000031</ele>
        <time>2010-03-31T10:58:53Z</time>
      </trkpt>
      <trkpt lat="46.017095" lon="8.276518">
        <ele>233.8000031</ele>
        <time>2010-03-31T10:59:01Z</time>
      </trkpt>
      <trkpt lat="46.016882" lon="8.276786">
        <ele>232.3999939</ele>
        <time>2010-03-31T10:59:08Z</time>
      </trkpt>
      <trkpt lat="46.016806" lon="8.276977">
        <ele>231.8000031</ele>
        <time>2010-03-31T10:59:12Z</time>
      </trkpt>
      <trkpt lat="46.016719" lon="8.277053">
        <ele>231.1999969</ele>
        <time>2010-03-31T10:59:16Z</time>
      </trkpt>
      <trkpt lat="46.016522" lon="8.277175">
        <ele>231.1999969</ele>
        <time>2010-03-31T10:59:23Z</time>
      </trkpt>
      <trkpt lat="46.016272" lon="8.277316">
        <ele>231.3999939</ele>
        <time>2010-03-31T10:59:30Z</time>
      </trkpt>
      <trkpt lat="46.016146" lon="8.277388">
        <ele>230.8000031</ele>
        <time>2010-03-31T10:59:33Z</time>
      </trkpt>
      <trkpt lat="46.015790" lon="8.277634">
        <ele>230.3999939</ele>
        <time>2010-03-31T10:59:42Z</time>
      </trkpt>
      <trkpt lat="46.015454" lon="8.277839">
        <ele>230.0000000</ele>
        <time>2010-03-31T10:59:50Z</time>
      </trkpt>
      <trkpt lat="46.015126" lon="8.278014">
        <ele>229.8000031</ele>
        <time>2010-03-31T10:59:57Z</time>
      </trkpt>
      <trkpt lat="46.014676" lon="8.278130">
        <ele>228.8000031</ele>
        <time>2010-03-31T11:00:10Z</time>
      </trkpt>
      <trkpt lat="46.014542" lon="8.278241">
        <ele>229.3999939</ele>
        <time>2010-03-31T11:00:15Z</time>
      </trkpt>
      <trkpt lat="46.014394" lon="8.278423">
        <ele>229.3999939</ele>
        <time>2010-03-31T11:00:20Z</time>
      </trkpt>
      <trkpt lat="46.014193" lon="8.278572">
        <ele>229.6000061</ele>
        <time>2010-03-31T11:00:26Z</time>
      </trkpt>
      <trkpt lat="46.013974" lon="8.278860">
        <ele>229.1999969</ele>
        <time>2010-03-31T11:00:33Z</time>
      </trkpt>
      <trkpt lat="46.013888" lon="8.278997">
        <ele>229.0000000</ele>
        <time>2010-03-31T11:00:36Z</time>
      </trkpt>
      <trkpt lat="46.013712" lon="8.279191">
        <ele>228.3999939</ele>
        <time>2010-03-31T11:00:41Z</time>
      </trkpt>
      <trkpt lat="46.013469" lon="8.279353">
        <ele>228.0000000</ele>
        <time>2010-03-31T11:00:47Z</time>
      </trkpt>
      <trkpt lat="46.013274" lon="8.279570">
        <ele>228.0000000</ele>
        <time>2010-03-31T11:00:53Z</time>
      </trkpt>
      <trkpt lat="46.013200" lon="8.279713">
        <ele>227.8000031</ele>
        <time>2010-03-31T11:00:56Z</time>
      </trkpt>
      <trkpt lat="46.013080" lon="8.279892">
        <ele>227.6000061</ele>
        <time>2010-03-31T11:01:00Z</time>
      </trkpt>
      <trkpt lat="46.012867" lon="8.280312">
        <ele>227.8000031</ele>
        <time>2010-03-31T11:01:08Z</time>
      </trkpt>
      <trkpt lat="46.012729" lon="8.280616">
        <ele>228.0000000</ele>
        <time>2010-03-31T11:01:14Z</time>
      </trkpt>
      <trkpt lat="46.012483" lon="8.280933">
        <ele>227.8000031</ele>
        <time>2010-03-31T11:01:23Z</time>
      </trkpt>
      <trkpt lat="46.012077" lon="8.280905">
        <ele>227.8000031</ele>
        <time>2010-03-31T11:01:32Z</time>
      </trkpt>
      <trkpt lat="46.011830" lon="8.280811">
        <ele>228.1999969</ele>
        <time>2010-03-31T11:01:38Z</time>
      </trkpt>
      <trkpt lat="46.011490" lon="8.280724">
        <ele>229.0000000</ele>
        <time>2010-03-31T11:01:47Z</time>
      </trkpt>
      <trkpt lat="46.011310" lon="8.280767">
        <ele>228.8000031</ele>
        <time>2010-03-31T11:01:51Z</time>
      </trkpt>
      <trkpt lat="46.011179" lon="8.280866">
        <ele>229.0000000</ele>
        <time>2010-03-31T11:01:54Z</time>
      </trkpt>
      <trkpt lat="46.011043" lon="8.280932">
        <ele>229.1999969</ele>
        <time>2010-03-31T11:01:57Z</time>
      </trkpt>
      <trkpt lat="46.010865" lon="8.280963">
        <ele>229.1999969</ele>
        <time>2010-03-31T11:02:01Z</time>
      </trkpt>
      <trkpt lat="46.010734" lon="8.281021">
        <ele>229.0000000</ele>
        <time>2010-03-31T11:02:04Z</time>
      </trkpt>
      <trkpt lat="46.010558" lon="8.281026">
        <ele>229.0000000</ele>
        <time>2010-03-31T11:02:08Z</time>
      </trkpt>
      <trkpt lat="46.010355" lon="8.281080">
        <ele>230.0000000</ele>
        <time>2010-03-31T11:02:13Z</time>
      </trkpt>
      <trkpt lat="46.010070" lon="8.281172">
        <ele>230.8000031</ele>
        <time>2010-03-31T11:02:20Z</time>
      </trkpt>
      <trkpt lat="46.009840" lon="8.281122">
        <ele>229.8000031</ele>
        <time>2010-03-31T11:02:25Z</time>
      </trkpt>
      <trkpt lat="46.009757" lon="8.281051">
        <ele>229.6000061</ele>
        <time>2010-03-31T11:02:27Z</time>
      </trkpt>
      <trkpt lat="46.009586" lon="8.280927">
        <ele>229.6000061</ele>
        <time>2010-03-31T11:02:32Z</time>
      </trkpt>
      <trkpt lat="46.009466" lon="8.280728">
        <ele>230.6000061</ele>
        <time>2010-03-31T11:02:41Z</time>
      </trkpt>
      <trkpt lat="46.009458" lon="8.280819">
        <ele>230.6000061</ele>
        <time>2010-03-31T11:02:43Z</time>
      </trkpt>
      <trkpt lat="46.009289" lon="8.282771">
        <ele>233.1999969</ele>
        <time>2010-03-31T11:03:21Z</time>
      </trkpt>
      <trkpt lat="46.009249" lon="8.283592">
        <ele>233.3999939</ele>
        <time>2010-03-31T11:03:34Z</time>
      </trkpt>
      <trkpt lat="46.009244" lon="8.283963">
        <ele>232.6000061</ele>
        <time>2010-03-31T11:03:41Z</time>
      </trkpt>
      <trkpt lat="46.009286" lon="8.284155">
        <ele>230.8000031</ele>
        <time>2010-03-31T11:03:44Z</time>
      </trkpt>
      <trkpt lat="46.009370" lon="8.284237">
        <ele>229.0000000</ele>
        <time>2010-03-31T11:03:47Z</time>
      </trkpt>
      <trkpt lat="46.009398" lon="8.284142">
        <ele>228.8000031</ele>
        <time>2010-03-31T11:03:49Z</time>
      </trkpt>
      <trkpt lat="46.009401" lon="8.283925">
        <ele>228.8000031</ele>
        <time>2010-03-31T11:03:53Z</time>
      </trkpt>
      <trkpt lat="46.009390" lon="8.283746">
        <ele>229.0000000</ele>
        <time>2010-03-31T11:03:57Z</time>
      </trkpt>
      <trkpt lat="46.009195" lon="8.283718">
        <ele>228.6000061</ele>
        <time>2010-03-31T11:04:03Z</time>
      </trkpt>
      <trkpt lat="46.008879" lon="8.283771">
        <ele>228.0000000</ele>
        <time>2010-03-31T11:04:10Z</time>
      </trkpt>
      <trkpt lat="46.008514" lon="8.283798">
        <ele>228.3999939</ele>
        <time>2010-03-31T11:04:18Z</time>
      </trkpt>
      <trkpt lat="46.008364" lon="8.283816">
        <ele>228.6000061</ele>
        <time>2010-03-31T11:04:23Z</time>
      </trkpt>
      <trkpt lat="46.008221" lon="8.283829">
        <ele>228.8000031</ele>
        <time>2010-03-31T11:04:29Z</time>
      </trkpt>
      <trkpt lat="46.007990" lon="8.283846">
        <ele>229.3999939</ele>
        <time>2010-03-31T11:04:36Z</time>
      </trkpt>
      <trkpt lat="46.007754" lon="8.283767">
        <ele>231.1999969</ele>
        <time>2010-03-31T11:04:43Z</time>
      </trkpt>
      <trkpt lat="46.007544" lon="8.283793">
        <ele>231.1999969</ele>
        <time>2010-03-31T11:04:49Z</time>
      </trkpt>
      <trkpt lat="46.007260" lon="8.283862">
        <ele>232.6000061</ele>
        <time>2010-03-31T11:04:57Z</time>
      </trkpt>
      <trkpt lat="46.006975" lon="8.283951">
        <ele>233.3999939</ele>
        <time>2010-03-31T11:05:05Z</time>
      </trkpt>
      <trkpt lat="46.006580" lon="8.284118">
        <ele>232.3999939</ele>
        <time>2010-03-31T11:05:16Z</time>
      </trkpt>
      <trkpt lat="46.006287" lon="8.284237">
        <ele>232.0000000</ele>
        <time>2010-03-31T11:05:24Z</time>
      </trkpt>
      <trkpt lat="46.005961" lon="8.284394">
        <ele>232.1999969</ele>
        <time>2010-03-31T11:05:33Z</time>
      </trkpt>
      <trkpt lat="46.005698" lon="8.284551">
        <ele>233.6000061</ele>
        <time>2010-03-31T11:05:41Z</time>
      </trkpt>
      <trkpt lat="46.005490" lon="8.284758">
        <ele>234.3999939</ele>
        <time>2010-03-31T11:05:48Z</time>
      </trkpt>
      <trkpt lat="46.005297" lon="8.284987">
        <ele>234.3999939</ele>
        <time>2010-03-31T11:05:55Z</time>
      </trkpt>
      <trkpt lat="46.005143" lon="8.285190">
        <ele>232.6000061</ele>
        <time>2010-03-31T11:06:01Z</time>
      </trkpt>
      <trkpt lat="46.004979" lon="8.285412">
        <ele>231.8000031</ele>
        <time>2010-03-31T11:06:07Z</time>
      </trkpt>
      <trkpt lat="46.004771" lon="8.285722">
        <ele>232.1999969</ele>
        <time>2010-03-31T11:06:15Z</time>
      </trkpt>
      <trkpt lat="46.004628" lon="8.285949">
        <ele>231.3999939</ele>
        <time>2010-03-31T11:06:21Z</time>
      </trkpt>
      <trkpt lat="46.004479" lon="8.286181">
        <ele>230.0000000</ele>
        <time>2010-03-31T11:06:27Z</time>
      </trkpt>
      <trkpt lat="46.004295" lon="8.286456">
        <ele>230.1999969</ele>
        <time>2010-03-31T11:06:34Z</time>
      </trkpt>
      <trkpt lat="46.004116" lon="8.286751">
        <ele>230.6000061</ele>
        <time>2010-03-31T11:06:41Z</time>
      </trkpt>
      <trkpt lat="46.003967" lon="8.287007">
        <ele>230.1999969</ele>
        <time>2010-03-31T11:06:47Z</time>
      </trkpt>
      <trkpt lat="46.003772" lon="8.287378">
        <ele>230.0000000</ele>
        <time>2010-03-31T11:06:55Z</time>
      </trkpt>
      <trkpt lat="46.003646" lon="8.287683">
        <ele>230.6000061</ele>
        <time>2010-03-31T11:07:01Z</time>
      </trkpt>
      <trkpt lat="46.003562" lon="8.287999">
        <ele>230.3999939</ele>
        <time>2010-03-31T11:07:07Z</time>
      </trkpt>
      <trkpt lat="46.003473" lon="8.288367">
        <ele>229.3999939</ele>
        <time>2010-03-31T11:07:14Z</time>
      </trkpt>
      <trkpt lat="46.003418" lon="8.288665">
        <ele>229.6000061</ele>
        <time>2010-03-31T11:07:20Z</time>
      </trkpt>
      <trkpt lat="46.003332" lon="8.289028">
        <ele>230.6000061</ele>
        <time>2010-03-31T11:07:27Z</time>
      </trkpt>
      <trkpt lat="46.003206" lon="8.289520">
        <ele>232.8000031</ele>
        <time>2010-03-31T11:07:36Z</time>
      </trkpt>
      <trkpt lat="46.003126" lon="8.289948">
        <ele>235.0000000</ele>
        <time>2010-03-31T11:07:44Z</time>
      </trkpt>
      <trkpt lat="46.003075" lon="8.290362">
        <ele>233.3999939</ele>
        <time>2010-03-31T11:07:51Z</time>
      </trkpt>
      <trkpt lat="46.003028" lon="8.290722">
        <ele>232.8000031</ele>
        <time>2010-03-31T11:07:57Z</time>
      </trkpt>
      <trkpt lat="46.002970" lon="8.291278">
        <ele>231.0000000</ele>
        <time>2010-03-31T11:08:06Z</time>
      </trkpt>
      <trkpt lat="46.002936" lon="8.291663">
        <ele>229.3999939</ele>
        <time>2010-03-31T11:08:13Z</time>
      </trkpt>
      <trkpt lat="46.002950" lon="8.291801">
        <ele>227.6000061</ele>
        <time>2010-03-31T11:08:17Z</time>
      </trkpt>
      <trkpt lat="46.003044" lon="8.291857">
        <ele>226.6000061</ele>
        <time>2010-03-31T11:08:21Z</time>
      </trkpt>
      <trkpt lat="46.003340" lon="8.291829">
        <ele>225.3999939</ele>
        <time>2010-03-31T11:08:30Z</time>
      </trkpt>
      <trkpt lat="46.003880" lon="8.291851">
        <ele>228.6000061</ele>
        <time>2010-03-31T11:08:53Z</time>
      </trkpt>
      <trkpt lat="46.004084" lon="8.291864">
        <ele>228.6000061</ele>
        <time>2010-03-31T11:08:59Z</time>
      </trkpt>
      <trkpt lat="46.004357" lon="8.291864">
        <ele>228.6000061</ele>
        <time>2010-03-31T11:09:06Z</time>
      </trkpt>
      <trkpt lat="46.004879" lon="8.291935">
        <ele>228.0000000</ele>
        <time>2010-03-31T11:09:19Z</time>
      </trkpt>
      <trkpt lat="46.005119" lon="8.291986">
        <ele>227.3999939</ele>
        <time>2010-03-31T11:09:25Z</time>
      </trkpt>
      <trkpt lat="46.005470" lon="8.291966">
        <ele>227.6000061</ele>
        <time>2010-03-31T11:09:33Z</time>
      </trkpt>
      <trkpt lat="46.005716" lon="8.291971">
        <ele>226.8000031</ele>
        <time>2010-03-31T11:09:39Z</time>
      </trkpt>
      <trkpt lat="46.005749" lon="8.292186">
        <ele>226.0000000</ele>
        <time>2010-03-31T11:09:44Z</time>
      </trkpt>
      <trkpt lat="46.005560" lon="8.292478">
        <ele>224.8000031</ele>
        <time>2010-03-31T11:09:52Z</time>
      </trkpt>
      <trkpt lat="46.005257" lon="8.292713">
        <ele>225.6000061</ele>
        <time>2010-03-31T11:10:00Z</time>
      </trkpt>
      <trkpt lat="46.004913" lon="8.292980">
        <ele>226.1999969</ele>
        <time>2010-03-31T11:10:09Z</time>
      </trkpt>
      <trkpt lat="46.004536" lon="8.293311">
        <ele>225.6000061</ele>
        <time>2010-03-31T11:10:19Z</time>
      </trkpt>
      <trkpt lat="46.004267" lon="8.293725">
        <ele>225.0000000</ele>
        <time>2010-03-31T11:11:56Z</time>
      </trkpt>
      <trkpt lat="46.004070" lon="8.294188">
        <ele>224.1999969</ele>
        <time>2010-03-31T11:12:06Z</time>
      </trkpt>
      <trkpt lat="46.004026" lon="8.294448">
        <ele>223.8000031</ele>
        <time>2010-03-31T11:12:11Z</time>
      </trkpt>
      <trkpt lat="46.003946" lon="8.294661">
        <ele>223.6000061</ele>
        <time>2010-03-31T11:12:16Z</time>
      </trkpt>
      <trkpt lat="46.003830" lon="8.294907">
        <ele>223.6000061</ele>
        <time>2010-03-31T11:12:22Z</time>
      </trkpt>
      <trkpt lat="46.003663" lon="8.295289">
        <ele>224.0000000</ele>
        <time>2010-03-31T11:13:38Z</time>
      </trkpt>
      <trkpt lat="46.003602" lon="8.295470">
        <ele>223.3999939</ele>
        <time>2010-03-31T11:13:45Z</time>
      </trkpt>
      <trkpt lat="46.003548" lon="8.295622">
        <ele>223.3999939</ele>
        <time>2010-03-31T11:13:50Z</time>
      </trkpt>
      <trkpt lat="46.003485" lon="8.295837">
        <ele>222.8000031</ele>
        <time>2010-03-31T11:13:57Z</time>
      </trkpt>
      <trkpt lat="46.003401" lon="8.296078">
        <ele>222.1999969</ele>
        <time>2010-03-31T11:14:03Z</time>
      </trkpt>
      <trkpt lat="46.003287" lon="8.296434">
        <ele>221.6000061</ele>
        <time>2010-03-31T11:14:10Z</time>
      </trkpt>
      <trkpt lat="46.003196" lon="8.296730">
        <ele>221.6000061</ele>
        <time>2010-03-31T11:14:16Z</time>
      </trkpt>
      <trkpt lat="46.003087" lon="8.297127">
        <ele>222.1999969</ele>
        <time>2010-03-31T11:14:24Z</time>
      </trkpt>
      <trkpt lat="46.003012" lon="8.297438">
        <ele>221.0000000</ele>
        <time>2010-03-31T11:14:30Z</time>
      </trkpt>
      <trkpt lat="46.002965" lon="8.297758">
        <ele>220.1999969</ele>
        <time>2010-03-31T11:14:36Z</time>
      </trkpt>
      <trkpt lat="46.002869" lon="8.298101">
        <ele>220.8000031</ele>
        <time>2010-03-31T11:14:46Z</time>
      </trkpt>
      <trkpt lat="46.002811" lon="8.298302">
        <ele>220.6000061</ele>
        <time>2010-03-31T11:14:53Z</time>
      </trkpt>
      <trkpt lat="46.002759" lon="8.298510">
        <ele>220.1999969</ele>
        <time>2010-03-31T11:14:59Z</time>
      </trkpt>
      <trkpt lat="46.002722" lon="8.298659">
        <ele>220.3999939</ele>
        <time>2010-03-31T11:15:05Z</time>
      </trkpt>
      <trkpt lat="46.002925" lon="8.298696">
        <ele>223.6000061</ele>
        <time>2010-03-31T11:29:50Z</time>
      </trkpt>
      <trkpt lat="46.003105" lon="8.298780">
        <ele>224.1999969</ele>
        <time>2010-03-31T11:29:57Z</time>
      </trkpt>
      <trkpt lat="46.003279" lon="8.298737">
        <ele>224.1999969</ele>
        <time>2010-03-31T11:30:03Z</time>
      </trkpt>
      <trkpt lat="46.003431" lon="8.298890">
        <ele>225.3999939</ele>
        <time>2010-03-31T11:30:12Z</time>
      </trkpt>
      <trkpt lat="46.003356" lon="8.299082">
        <ele>225.8000031</ele>
        <time>2010-03-31T11:30:17Z</time>
      </trkpt>
      <trkpt lat="46.003274" lon="8.299322">
        <ele>225.0000000</ele>
        <time>2010-03-31T11:30:23Z</time>
      </trkpt>
      <trkpt lat="46.003177" lon="8.299512">
        <ele>224.0000000</ele>
        <time>2010-03-31T11:30:28Z</time>
      </trkpt>
      <trkpt lat="46.003091" lon="8.299726">
        <ele>223.3999939</ele>
        <time>2010-03-31T11:30:33Z</time>
      </trkpt>
      <trkpt lat="46.003006" lon="8.299981">
        <ele>222.8000031</ele>
        <time>2010-03-31T11:30:39Z</time>
      </trkpt>
      <trkpt lat="46.002946" lon="8.300138">
        <ele>223.1999969</ele>
        <time>2010-03-31T11:30:44Z</time>
      </trkpt>
      <trkpt lat="46.002894" lon="8.300299">
        <ele>223.8000031</ele>
        <time>2010-03-31T11:30:49Z</time>
      </trkpt>
      <trkpt lat="46.002827" lon="8.300505">
        <ele>223.8000031</ele>
        <time>2010-03-31T11:30:54Z</time>
      </trkpt>
      <trkpt lat="46.002766" lon="8.300729">
        <ele>224.0000000</ele>
        <time>2010-03-31T11:31:00Z</time>
      </trkpt>
      <trkpt lat="46.002843" lon="8.300851">
        <ele>223.8000031</ele>
        <time>2010-03-31T11:31:04Z</time>
      </trkpt>
      <trkpt lat="46.003040" lon="8.301050">
        <ele>224.1999969</ele>
        <time>2010-03-31T11:31:11Z</time>
      </trkpt>
      <trkpt lat="46.003130" lon="8.301238">
        <ele>224.6000061</ele>
        <time>2010-03-31T11:31:16Z</time>
      </trkpt>
      <trkpt lat="46.003150" lon="8.301605">
        <ele>224.1999969</ele>
        <time>2010-03-31T11:31:24Z</time>
      </trkpt>
      <trkpt lat="46.003124" lon="8.301841">
        <ele>224.3999939</ele>
        <time>2010-03-31T11:31:30Z</time>
      </trkpt>
      <trkpt lat="46.003023" lon="8.302048">
        <ele>225.0000000</ele>
        <time>2010-03-31T11:31:36Z</time>
      </trkpt>
      <trkpt lat="46.002872" lon="8.302305">
        <ele>222.8000031</ele>
        <time>2010-03-31T11:31:44Z</time>
      </trkpt>
      <trkpt lat="46.002702" lon="8.302561">
        <ele>222.3999939</ele>
        <time>2010-03-31T11:31:52Z</time>
      </trkpt>
      <trkpt lat="46.002605" lon="8.302719">
        <ele>222.1999969</ele>
        <time>2010-03-31T11:31:59Z</time>
      </trkpt>
      <trkpt lat="46.002499" lon="8.303082">
        <ele>222.0000000</ele>
        <time>2010-03-31T11:32:12Z</time>
      </trkpt>
      <trkpt lat="46.002580" lon="8.303126">
        <ele>221.6000061</ele>
        <time>2010-03-31T11:32:16Z</time>
      </trkpt>
      <trkpt lat="46.002840" lon="8.303130">
        <ele>222.1999969</ele>
        <time>2010-03-31T11:32:25Z</time>
      </trkpt>
      <trkpt lat="46.003086" lon="8.303260">
        <ele>223.0000000</ele>
        <time>2010-03-31T11:32:33Z</time>
      </trkpt>
      <trkpt lat="46.003178" lon="8.303455">
        <ele>223.1999969</ele>
        <time>2010-03-31T11:32:38Z</time>
      </trkpt>
      <trkpt lat="46.003181" lon="8.303768">
        <ele>223.3999939</ele>
        <time>2010-03-31T11:32:44Z</time>
      </trkpt>
      <trkpt lat="46.003134" lon="8.304237">
        <ele>223.0000000</ele>
        <time>2010-03-31T11:32:53Z</time>
      </trkpt>
      <trkpt lat="46.003130" lon="8.304441">
        <ele>223.0000000</ele>
        <time>2010-03-31T11:32:57Z</time>
      </trkpt>
      <trkpt lat="46.003148" lon="8.304700">
        <ele>223.1999969</ele>
        <time>2010-03-31T11:33:02Z</time>
      </trkpt>
      <trkpt lat="46.003134" lon="8.304962">
        <ele>224.0000000</ele>
        <time>2010-03-31T11:33:07Z</time>
      </trkpt>
      <trkpt lat="46.003149" lon="8.305214">
        <ele>224.3999939</ele>
        <time>2010-03-31T11:33:12Z</time>
      </trkpt>
      <trkpt lat="46.003191" lon="8.305408">
        <ele>224.0000000</ele>
        <time>2010-03-31T11:33:16Z</time>
      </trkpt>
      <trkpt lat="46.003183" lon="8.305655">
        <ele>224.6000061</ele>
        <time>2010-03-31T11:33:21Z</time>
      </trkpt>
      <trkpt lat="46.003146" lon="8.306009">
        <ele>226.1999969</ele>
        <time>2010-03-31T11:33:28Z</time>
      </trkpt>
      <trkpt lat="46.003111" lon="8.306182">
        <ele>225.8000031</ele>
        <time>2010-03-31T11:33:33Z</time>
      </trkpt>
      <trkpt lat="46.003095" lon="8.306440">
        <ele>226.1999969</ele>
        <time>2010-03-31T11:33:41Z</time>
      </trkpt>
      <trkpt lat="46.003059" lon="8.306610">
        <ele>226.6000061</ele>
        <time>2010-03-31T11:33:46Z</time>
      </trkpt>
      <trkpt lat="46.002846" lon="8.306696">
        <ele>226.6000061</ele>
        <time>2010-03-31T11:33:53Z</time>
      </trkpt>
      <trkpt lat="46.002679" lon="8.306758">
        <ele>225.3999939</ele>
        <time>2010-03-31T11:33:58Z</time>
      </trkpt>
      <trkpt lat="46.002608" lon="8.307083">
        <ele>224.1999969</ele>
        <time>2010-03-31T11:34:05Z</time>
      </trkpt>
      <trkpt lat="46.002509" lon="8.307428">
        <ele>223.0000000</ele>
        <time>2010-03-31T11:34:13Z</time>
      </trkpt>
      <trkpt lat="46.002413" lon="8.307666">
        <ele>222.3999939</ele>
        <time>2010-03-31T11:34:19Z</time>
      </trkpt>
      <trkpt lat="46.002303" lon="8.308063">
        <ele>221.6000061</ele>
        <time>2010-03-31T11:34:28Z</time>
      </trkpt>
      <trkpt lat="46.002231" lon="8.308325">
        <ele>221.1999969</ele>
        <time>2010-03-31T11:34:34Z</time>
      </trkpt>
      <trkpt lat="46.002138" lon="8.308643">
        <ele>220.8000031</ele>
        <time>2010-03-31T11:34:41Z</time>
      </trkpt>
      <trkpt lat="46.002075" lon="8.308905">
        <ele>221.0000000</ele>
        <time>2010-03-31T11:34:47Z</time>
      </trkpt>
      <trkpt lat="46.001984" lon="8.309143">
        <ele>221.0000000</ele>
        <time>2010-03-31T11:34:53Z</time>
      </trkpt>
      <trkpt lat="46.001909" lon="8.309537">
        <ele>221.3999939</ele>
        <time>2010-03-31T11:35:01Z</time>
      </trkpt>
      <trkpt lat="46.001823" lon="8.309841">
        <ele>221.3999939</ele>
        <time>2010-03-31T11:35:08Z</time>
      </trkpt>
      <trkpt lat="46.001735" lon="8.310162">
        <ele>220.8000031</ele>
        <time>2010-03-31T11:35:15Z</time>
      </trkpt>
      <trkpt lat="46.001667" lon="8.310447">
        <ele>220.6000061</ele>
        <time>2010-03-31T11:35:21Z</time>
      </trkpt>
      <trkpt lat="46.001592" lon="8.310782">
        <ele>220.1999969</ele>
        <time>2010-03-31T11:35:28Z</time>
      </trkpt>
      <trkpt lat="46.001496" lon="8.311128">
        <ele>219.8000031</ele>
        <time>2010-03-31T11:35:35Z</time>
      </trkpt>
      <trkpt lat="46.001383" lon="8.311495">
        <ele>220.8000031</ele>
        <time>2010-03-31T11:35:43Z</time>
      </trkpt>
      <trkpt lat="46.001290" lon="8.311746">
        <ele>221.0000000</ele>
        <time>2010-03-31T11:35:49Z</time>
      </trkpt>
      <trkpt lat="46.001146" lon="8.311751">
        <ele>221.8000031</ele>
        <time>2010-03-31T11:35:53Z</time>
      </trkpt>
      <trkpt lat="46.000945" lon="8.311662">
        <ele>222.8000031</ele>
        <time>2010-03-31T11:36:00Z</time>
      </trkpt>
      <trkpt lat="46.000671" lon="8.311553">
        <ele>224.1999969</ele>
        <time>2010-03-31T11:36:08Z</time>
      </trkpt>
      <trkpt lat="46.000491" lon="8.311489">
        <ele>224.8000031</ele>
        <time>2010-03-31T11:36:14Z</time>
      </trkpt>
      <trkpt lat="46.000410" lon="8.311445">
        <ele>226.1999969</ele>
        <time>2010-03-31T11:36:38Z</time>
      </trkpt>
      <trkpt lat="46.000193" lon="8.311409">
        <ele>231.6000061</ele>
        <time>2010-03-31T11:37:32Z</time>
      </trkpt>
      <trkpt lat="45.999973" lon="8.311352">
        <ele>229.3999939</ele>
        <time>2010-03-31T11:37:38Z</time>
      </trkpt>
      <trkpt lat="45.999640" lon="8.311329">
        <ele>228.3999939</ele>
        <time>2010-03-31T11:37:46Z</time>
      </trkpt>
      <trkpt lat="45.999302" lon="8.311319">
        <ele>227.0000000</ele>
        <time>2010-03-31T11:37:54Z</time>
      </trkpt>
      <trkpt lat="45.999116" lon="8.311284">
        <ele>226.3999939</ele>
        <time>2010-03-31T11:37:59Z</time>
      </trkpt>
      <trkpt lat="45.998986" lon="8.311375">
        <ele>225.8000031</ele>
        <time>2010-03-31T11:38:03Z</time>
      </trkpt>
      <trkpt lat="45.998855" lon="8.311646">
        <ele>224.6000061</ele>
        <time>2010-03-31T11:38:09Z</time>
      </trkpt>
      <trkpt lat="45.998673" lon="8.311927">
        <ele>222.8000031</ele>
        <time>2010-03-31T11:38:16Z</time>
      </trkpt>
      <trkpt lat="45.998544" lon="8.312180">
        <ele>222.3999939</ele>
        <time>2010-03-31T11:38:22Z</time>
      </trkpt>
      <trkpt lat="45.998369" lon="8.312557">
        <ele>223.8000031</ele>
        <time>2010-03-31T11:38:30Z</time>
      </trkpt>
      <trkpt lat="45.998208" lon="8.312900">
        <ele>224.0000000</ele>
        <time>2010-03-31T11:38:37Z</time>
      </trkpt>
      <trkpt lat="45.998061" lon="8.313384">
        <ele>223.8000031</ele>
        <time>2010-03-31T11:38:46Z</time>
      </trkpt>
      <trkpt lat="45.997962" lon="8.313684">
        <ele>223.3999939</ele>
        <time>2010-03-31T11:38:52Z</time>
      </trkpt>
      <trkpt lat="45.997831" lon="8.314096">
        <ele>221.8000031</ele>
        <time>2010-03-31T11:39:00Z</time>
      </trkpt>
      <trkpt lat="45.997831" lon="8.314443">
        <ele>221.3999939</ele>
        <time>2010-03-31T11:39:09Z</time>
      </trkpt>
      <trkpt lat="45.997820" lon="8.314731">
        <ele>221.6000061</ele>
        <time>2010-03-31T11:39:55Z</time>
      </trkpt>
      <trkpt lat="45.997837" lon="8.315123">
        <ele>221.6000061</ele>
        <time>2010-03-31T11:40:02Z</time>
      </trkpt>
      <trkpt lat="45.997848" lon="8.315612">
        <ele>221.3999939</ele>
        <time>2010-03-31T11:40:10Z</time>
      </trkpt>
      <trkpt lat="45.997889" lon="8.316127">
        <ele>221.1999969</ele>
        <time>2010-03-31T11:40:18Z</time>
      </trkpt>
      <trkpt lat="45.997928" lon="8.316587">
        <ele>221.1999969</ele>
        <time>2010-03-31T11:40:25Z</time>
      </trkpt>
      <trkpt lat="45.998111" lon="8.317269">
        <ele>225.1999969</ele>
        <time>2010-03-31T11:43:57Z</time>
      </trkpt>
      <trkpt lat="45.998166" lon="8.317754">
        <ele>224.3999939</ele>
        <time>2010-03-31T11:44:05Z</time>
      </trkpt>
      <trkpt lat="45.998190" lon="8.318241">
        <ele>223.3999939</ele>
        <time>2010-03-31T11:44:13Z</time>
      </trkpt>
      <trkpt lat="45.998192" lon="8.318502">
        <ele>223.1999969</ele>
        <time>2010-03-31T11:44:18Z</time>
      </trkpt>
      <trkpt lat="45.998111" lon="8.318505">
        <ele>222.8000031</ele>
        <time>2010-03-31T11:44:20Z</time>
      </trkpt>
      <trkpt lat="45.997678" lon="8.318337">
        <ele>222.1999969</ele>
        <time>2010-03-31T11:44:30Z</time>
      </trkpt>
      <trkpt lat="45.997220" lon="8.318162">
        <ele>223.3999939</ele>
        <time>2010-03-31T11:44:41Z</time>
      </trkpt>
      <trkpt lat="45.996935" lon="8.318083">
        <ele>225.1999969</ele>
        <time>2010-03-31T11:44:48Z</time>
      </trkpt>
      <trkpt lat="45.996695" lon="8.318027">
        <ele>227.6000061</ele>
        <time>2010-03-31T11:44:54Z</time>
      </trkpt>
      <trkpt lat="45.996549" lon="8.318279">
        <ele>226.8000031</ele>
        <time>2010-03-31T11:45:00Z</time>
      </trkpt>
      <trkpt lat="45.996516" lon="8.319008">
        <ele>225.3999939</ele>
        <time>2010-03-31T11:45:11Z</time>
      </trkpt>
      <trkpt lat="45.996467" lon="8.319424">
        <ele>224.6000061</ele>
        <time>2010-03-31T11:45:17Z</time>
      </trkpt>
      <trkpt lat="45.996329" lon="8.319705">
        <ele>224.6000061</ele>
        <time>2010-03-31T11:45:22Z</time>
      </trkpt>
      <trkpt lat="45.996212" lon="8.319786">
        <ele>225.0000000</ele>
        <time>2010-03-31T11:45:25Z</time>
      </trkpt>
      <trkpt lat="45.996043" lon="8.319856">
        <ele>225.1999969</ele>
        <time>2010-03-31T11:45:29Z</time>
      </trkpt>
      <trkpt lat="45.995836" lon="8.320130">
        <ele>224.8000031</ele>
        <time>2010-03-31T11:45:35Z</time>
      </trkpt>
      <trkpt lat="45.995689" lon="8.320609">
        <ele>224.3999939</ele>
        <time>2010-03-31T11:45:43Z</time>
      </trkpt>
      <trkpt lat="45.995726" lon="8.320969">
        <ele>223.0000000</ele>
        <time>2010-03-31T11:45:49Z</time>
      </trkpt>
      <trkpt lat="45.995853" lon="8.321376">
        <ele>222.1999969</ele>
        <time>2010-03-31T11:45:56Z</time>
      </trkpt>
      <trkpt lat="45.995964" lon="8.321673">
        <ele>221.8000031</ele>
        <time>2010-03-31T11:46:02Z</time>
      </trkpt>
      <trkpt lat="45.996076" lon="8.321887">
        <ele>222.1999969</ele>
        <time>2010-03-31T11:46:08Z</time>
      </trkpt>
      <trkpt lat="45.996120" lon="8.322113">
        <ele>221.8000031</ele>
        <time>2010-03-31T11:46:13Z</time>
      </trkpt>
      <trkpt lat="45.996224" lon="8.322552">
        <ele>221.1999969</ele>
        <time>2010-03-31T11:46:21Z</time>
      </trkpt>
      <trkpt lat="45.996374" lon="8.323046">
        <ele>222.0000000</ele>
        <time>2010-03-31T11:46:32Z</time>
      </trkpt>
      <trkpt lat="45.996424" lon="8.323170">
        <ele>222.3999939</ele>
        <time>2010-03-31T11:46:36Z</time>
      </trkpt>
      <trkpt lat="45.996528" lon="8.323548">
        <ele>222.8000031</ele>
        <time>2010-03-31T11:46:44Z</time>
      </trkpt>
      <trkpt lat="45.996620" lon="8.323761">
        <ele>223.0000000</ele>
        <time>2010-03-31T11:46:49Z</time>
      </trkpt>
      <trkpt lat="45.996764" lon="8.323765">
        <ele>223.6000061</ele>
        <time>2010-03-31T11:46:53Z</time>
      </trkpt>
      <trkpt lat="45.996889" lon="8.323720">
        <ele>224.3999939</ele>
        <time>2010-03-31T11:46:56Z</time>
      </trkpt>
      <trkpt lat="45.997051" lon="8.323636">
        <ele>224.1999969</ele>
        <time>2010-03-31T11:47:00Z</time>
      </trkpt>
      <trkpt lat="45.997217" lon="8.323633">
        <ele>223.8000031</ele>
        <time>2010-03-31T11:47:04Z</time>
      </trkpt>
      <trkpt lat="45.997288" lon="8.323668">
        <ele>224.6000061</ele>
        <time>2010-03-31T11:47:08Z</time>
      </trkpt>
      <trkpt lat="45.997321" lon="8.323816">
        <ele>233.0000000</ele>
        <time>2010-03-31T11:47:40Z</time>
      </trkpt>
      <trkpt lat="45.997298" lon="8.324057">
        <ele>233.0000000</ele>
        <time>2010-03-31T11:47:46Z</time>
      </trkpt>
      <trkpt lat="45.997281" lon="8.324285">
        <ele>232.6000061</ele>
        <time>2010-03-31T11:47:50Z</time>
      </trkpt>
      <trkpt lat="45.997345" lon="8.324852">
        <ele>232.0000000</ele>
        <time>2010-03-31T11:47:59Z</time>
      </trkpt>
      <trkpt lat="45.997421" lon="8.325291">
        <ele>231.1999969</ele>
        <time>2010-03-31T11:48:06Z</time>
      </trkpt>
      <trkpt lat="45.997313" lon="8.325459">
        <ele>229.8000031</ele>
        <time>2010-03-31T11:48:11Z</time>
      </trkpt>
      <trkpt lat="45.997017" lon="8.325446">
        <ele>228.1999969</ele>
        <time>2010-03-31T11:48:19Z</time>
      </trkpt>
      <trkpt lat="45.996750" lon="8.325467">
        <ele>228.3999939</ele>
        <time>2010-03-31T11:48:26Z</time>
      </trkpt>
      <trkpt lat="45.996298" lon="8.325575">
        <ele>228.8000031</ele>
        <time>2010-03-31T11:48:37Z</time>
      </trkpt>
      <trkpt lat="45.995928" lon="8.325664">
        <ele>229.0000000</ele>
        <time>2010-03-31T11:48:46Z</time>
      </trkpt>
      <trkpt lat="45.995805" lon="8.325945">
        <ele>228.1999969</ele>
        <time>2010-03-31T11:48:52Z</time>
      </trkpt>
      <trkpt lat="45.995797" lon="8.326275">
        <ele>229.1999969</ele>
        <time>2010-03-31T11:48:57Z</time>
      </trkpt>
      <trkpt lat="45.995653" lon="8.326922">
        <ele>229.3999939</ele>
        <time>2010-03-31T11:49:07Z</time>
      </trkpt>
      <trkpt lat="45.995538" lon="8.327137">
        <ele>227.3999939</ele>
        <time>2010-03-31T11:49:11Z</time>
      </trkpt>
      <trkpt lat="45.995316" lon="8.327356">
        <ele>225.3999939</ele>
        <time>2010-03-31T11:49:17Z</time>
      </trkpt>
      <trkpt lat="45.995221" lon="8.327582">
        <ele>224.1999969</ele>
        <time>2010-03-31T11:49:21Z</time>
      </trkpt>
      <trkpt lat="45.995244" lon="8.327789">
        <ele>224.6000061</ele>
        <time>2010-03-31T11:49:24Z</time>
      </trkpt>
      <trkpt lat="45.995336" lon="8.328187">
        <ele>224.1999969</ele>
        <time>2010-03-31T11:49:30Z</time>
      </trkpt>
      <trkpt lat="45.995321" lon="8.328743">
        <ele>223.6000061</ele>
        <time>2010-03-31T11:49:38Z</time>
      </trkpt>
      <trkpt lat="45.995218" lon="8.328963">
        <ele>223.8000031</ele>
        <time>2010-03-31T11:49:42Z</time>
      </trkpt>
      <trkpt lat="45.995150" lon="8.329047">
        <ele>224.0000000</ele>
        <time>2010-03-31T11:49:44Z</time>
      </trkpt>
      <trkpt lat="45.995117" lon="8.329336">
        <ele>224.3999939</ele>
        <time>2010-03-31T11:49:49Z</time>
      </trkpt>
      <trkpt lat="45.995146" lon="8.329534">
        <ele>224.8000031</ele>
        <time>2010-03-31T11:49:52Z</time>
      </trkpt>
      <trkpt lat="45.995123" lon="8.329877">
        <ele>224.8000031</ele>
        <time>2010-03-31T11:49:57Z</time>
      </trkpt>
      <trkpt lat="45.994993" lon="8.330312">
        <ele>226.1999969</ele>
        <time>2010-03-31T11:50:04Z</time>
      </trkpt>
      <trkpt lat="45.994944" lon="8.330480">
        <ele>229.0000000</ele>
        <time>2010-03-31T11:50:07Z</time>
      </trkpt>
      <trkpt lat="45.994892" lon="8.330671">
        <ele>230.0000000</ele>
        <time>2010-03-31T11:50:10Z</time>
      </trkpt>
      <trkpt lat="45.994856" lon="8.330981">
        <ele>234.1999969</ele>
        <time>2010-03-31T11:50:15Z</time>
      </trkpt>
      <trkpt lat="45.994856" lon="8.331267">
        <ele>239.3999939</ele>
        <time>2010-03-31T11:50:20Z</time>
      </trkpt>
      <trkpt lat="45.994793" lon="8.331745">
        <ele>240.3999939</ele>
        <time>2010-03-31T11:50:27Z</time>
      </trkpt>
      <trkpt lat="45.994743" lon="8.332261">
        <ele>232.3999939</ele>
        <time>2010-03-31T11:50:35Z</time>
      </trkpt>
      <trkpt lat="45.994644" lon="8.332374">
        <ele>235.0000000</ele>
        <time>2010-03-31T11:50:41Z</time>
      </trkpt>
      <trkpt lat="45.994569" lon="8.332529">
        <ele>237.8000031</ele>
        <time>2010-03-31T11:50:47Z</time>
      </trkpt>
      <trkpt lat="45.994528" lon="8.332760">
        <ele>241.3999939</ele>
        <time>2010-03-31T11:50:53Z</time>
      </trkpt>
      <trkpt lat="45.994456" lon="8.333117">
        <ele>241.6000061</ele>
        <time>2010-03-31T11:51:03Z</time>
      </trkpt>
      <trkpt lat="45.994452" lon="8.333394">
        <ele>257.2000122</ele>
        <time>2010-03-31T11:51:57Z</time>
      </trkpt>
      <trkpt lat="45.994409" lon="8.333596">
        <ele>250.6000061</ele>
        <time>2010-03-31T11:52:02Z</time>
      </trkpt>
      <trkpt lat="45.994340" lon="8.333883">
        <ele>242.6000061</ele>
        <time>2010-03-31T11:52:07Z</time>
      </trkpt>
      <trkpt lat="45.994333" lon="8.334140">
        <ele>239.1999969</ele>
        <time>2010-03-31T11:52:11Z</time>
      </trkpt>
      <trkpt lat="45.994350" lon="8.334580">
        <ele>236.3999939</ele>
        <time>2010-03-31T11:52:18Z</time>
      </trkpt>
      <trkpt lat="45.994348" lon="8.334887">
        <ele>234.1999969</ele>
        <time>2010-03-31T11:52:23Z</time>
      </trkpt>
      <trkpt lat="45.994327" lon="8.335125">
        <ele>232.3999939</ele>
        <time>2010-03-31T11:52:27Z</time>
      </trkpt>
      <trkpt lat="45.994332" lon="8.335494">
        <ele>230.6000061</ele>
        <time>2010-03-31T11:52:33Z</time>
      </trkpt>
      <trkpt lat="45.994382" lon="8.335801">
        <ele>229.3999939</ele>
        <time>2010-03-31T11:52:38Z</time>
      </trkpt>
      <trkpt lat="45.994538" lon="8.336323">
        <ele>228.6000061</ele>
        <time>2010-03-31T11:52:47Z</time>
      </trkpt>
      <trkpt lat="45.994650" lon="8.336738">
        <ele>228.0000000</ele>
        <time>2010-03-31T11:52:54Z</time>
      </trkpt>
      <trkpt lat="45.994691" lon="8.336842">
        <ele>228.1999969</ele>
        <time>2010-03-31T11:52:56Z</time>
      </trkpt>
      <trkpt lat="45.994869" lon="8.337241">
        <ele>229.1999969</ele>
        <time>2010-03-31T11:53:03Z</time>
      </trkpt>
      <trkpt lat="45.994952" lon="8.337467">
        <ele>231.0000000</ele>
        <time>2010-03-31T11:53:07Z</time>
      </trkpt>
      <trkpt lat="45.994976" lon="8.337931">
        <ele>231.1999969</ele>
        <time>2010-03-31T11:53:14Z</time>
      </trkpt>
      <trkpt lat="45.994972" lon="8.338269">
        <ele>230.8000031</ele>
        <time>2010-03-31T11:53:19Z</time>
      </trkpt>
      <trkpt lat="45.994986" lon="8.338523">
        <ele>231.0000000</ele>
        <time>2010-03-31T11:53:23Z</time>
      </trkpt>
      <trkpt lat="45.994975" lon="8.338974">
        <ele>231.8000031</ele>
        <time>2010-03-31T11:53:30Z</time>
      </trkpt>
      <trkpt lat="45.995078" lon="8.339334">
        <ele>236.8000031</ele>
        <time>2010-03-31T11:53:36Z</time>
      </trkpt>
      <trkpt lat="45.995214" lon="8.339818">
        <ele>238.0000000</ele>
        <time>2010-03-31T11:53:44Z</time>
      </trkpt>
      <trkpt lat="45.995246" lon="8.340016">
        <ele>236.3999939</ele>
        <time>2010-03-31T11:53:47Z</time>
      </trkpt>
      <trkpt lat="45.995306" lon="8.340522">
        <ele>232.3999939</ele>
        <time>2010-03-31T11:53:55Z</time>
      </trkpt>
      <trkpt lat="45.995364" lon="8.340901">
        <ele>233.8000031</ele>
        <time>2010-03-31T11:54:01Z</time>
      </trkpt>
      <trkpt lat="45.995451" lon="8.341135">
        <ele>237.0000000</ele>
        <time>2010-03-31T11:54:05Z</time>
      </trkpt>
      <trkpt lat="45.995642" lon="8.341419">
        <ele>241.3999939</ele>
        <time>2010-03-31T11:54:11Z</time>
      </trkpt>
      <trkpt lat="45.995825" lon="8.341518">
        <ele>245.8000031</ele>
        <time>2010-03-31T11:54:16Z</time>
      </trkpt>
      <trkpt lat="45.996112" lon="8.341421">
        <ele>253.1999969</ele>
        <time>2010-03-31T11:54:23Z</time>
      </trkpt>
      <trkpt lat="45.996486" lon="8.341250">
        <ele>253.6000061</ele>
        <time>2010-03-31T11:54:32Z</time>
      </trkpt>
      <trkpt lat="45.996893" lon="8.341061">
        <ele>252.3999939</ele>
        <time>2010-03-31T11:54:41Z</time>
      </trkpt>
      <trkpt lat="45.997204" lon="8.340989">
        <ele>243.3999939</ele>
        <time>2010-03-31T11:54:50Z</time>
      </trkpt>
      <trkpt lat="45.997329" lon="8.340992">
        <ele>231.0000000</ele>
        <time>2010-03-31T11:55:54Z</time>
      </trkpt>
      <trkpt lat="45.997548" lon="8.341063">
        <ele>231.1999969</ele>
        <time>2010-03-31T11:56:00Z</time>
      </trkpt>
      <trkpt lat="45.997668" lon="8.341103">
        <ele>231.8000031</ele>
        <time>2010-03-31T11:56:03Z</time>
      </trkpt>
      <trkpt lat="45.997856" lon="8.341038">
        <ele>232.3999939</ele>
        <time>2010-03-31T11:56:08Z</time>
      </trkpt>
      <trkpt lat="45.998040" lon="8.340865">
        <ele>231.8000031</ele>
        <time>2010-03-31T11:56:13Z</time>
      </trkpt>
      <trkpt lat="45.998334" lon="8.340632">
        <ele>228.6000061</ele>
        <time>2010-03-31T11:56:20Z</time>
      </trkpt>
      <trkpt lat="45.998427" lon="8.340598">
        <ele>230.1999969</ele>
        <time>2010-03-31T11:56:22Z</time>
      </trkpt>
      <trkpt lat="45.998524" lon="8.340595">
        <ele>231.3999939</ele>
        <time>2010-03-31T11:56:24Z</time>
      </trkpt>
      <trkpt lat="45.998686" lon="8.340701">
        <ele>233.6000061</ele>
        <time>2010-03-31T11:56:28Z</time>
      </trkpt>
      <trkpt lat="45.999018" lon="8.341183">
        <ele>235.8000031</ele>
        <time>2010-03-31T11:56:38Z</time>
      </trkpt>
      <trkpt lat="45.999102" lon="8.341347">
        <ele>234.8000031</ele>
        <time>2010-03-31T11:56:41Z</time>
      </trkpt>
      <trkpt lat="45.999270" lon="8.341530">
        <ele>232.8000031</ele>
        <time>2010-03-31T11:56:46Z</time>
      </trkpt>
      <trkpt lat="45.999485" lon="8.341699">
        <ele>233.1999969</ele>
        <time>2010-03-31T11:56:53Z</time>
      </trkpt>
      <trkpt lat="45.999628" lon="8.341818">
        <ele>233.1999969</ele>
        <time>2010-03-31T11:56:58Z</time>
      </trkpt>
      <trkpt lat="45.999736" lon="8.342013">
        <ele>220.3999939</ele>
        <time>2010-03-31T12:03:03Z</time>
      </trkpt>
      <trkpt lat="45.999708" lon="8.342167">
        <ele>220.8000031</ele>
        <time>2010-03-31T12:03:08Z</time>
      </trkpt>
      <trkpt lat="45.999617" lon="8.342631">
        <ele>218.1999969</ele>
        <time>2010-03-31T12:03:17Z</time>
      </trkpt>
      <trkpt lat="45.999459" lon="8.343347">
        <ele>216.6000061</ele>
        <time>2010-03-31T12:03:30Z</time>
      </trkpt>
      <trkpt lat="45.999351" lon="8.343798">
        <ele>217.0000000</ele>
        <time>2010-03-31T12:03:38Z</time>
      </trkpt>
      <trkpt lat="45.999200" lon="8.344429">
        <ele>217.8000031</ele>
        <time>2010-03-31T12:03:49Z</time>
      </trkpt>
      <trkpt lat="45.999029" lon="8.345131">
        <ele>219.0000000</ele>
        <time>2010-03-31T12:04:01Z</time>
      </trkpt>
      <trkpt lat="45.998843" lon="8.345911">
        <ele>220.1999969</ele>
        <time>2010-03-31T12:04:14Z</time>
      </trkpt>
      <trkpt lat="45.998634" lon="8.346772">
        <ele>221.1999969</ele>
        <time>2010-03-31T12:04:28Z</time>
      </trkpt>
      <trkpt lat="45.998421" lon="8.347628">
        <ele>222.6000061</ele>
        <time>2010-03-31T12:04:42Z</time>
      </trkpt>
      <trkpt lat="45.998254" lon="8.348292">
        <ele>222.6000061</ele>
        <time>2010-03-31T12:04:52Z</time>
      </trkpt>
      <trkpt lat="45.998048" lon="8.349118">
        <ele>222.3999939</ele>
        <time>2010-03-31T12:05:04Z</time>
      </trkpt>
      <trkpt lat="45.997797" lon="8.350121">
        <ele>222.0000000</ele>
        <time>2010-03-31T12:05:18Z</time>
      </trkpt>
      <trkpt lat="45.997535" lon="8.351188">
        <ele>222.0000000</ele>
        <time>2010-03-31T12:05:33Z</time>
      </trkpt>
      <trkpt lat="45.997454" lon="8.351518">
        <ele>222.3999939</ele>
        <time>2010-03-31T12:05:39Z</time>
      </trkpt>
      <trkpt lat="45.997351" lon="8.351927">
        <ele>222.0000000</ele>
        <time>2010-03-31T12:05:47Z</time>
      </trkpt>
      <trkpt lat="45.997253" lon="8.352389">
        <ele>220.6000061</ele>
        <time>2010-03-31T12:05:54Z</time>
      </trkpt>
      <trkpt lat="45.997153" lon="8.352410">
        <ele>219.6000061</ele>
        <time>2010-03-31T12:05:58Z</time>
      </trkpt>
      <trkpt lat="45.996885" lon="8.352291">
        <ele>219.6000061</ele>
        <time>2010-03-31T12:06:04Z</time>
      </trkpt>
      <trkpt lat="45.996699" lon="8.352176">
        <ele>218.1999969</ele>
        <time>2010-03-31T12:06:10Z</time>
      </trkpt>
      <trkpt lat="45.996486" lon="8.352060">
        <ele>216.3999939</ele>
        <time>2010-03-31T12:06:17Z</time>
      </trkpt>
      <trkpt lat="45.996287" lon="8.351991">
        <ele>216.6000061</ele>
        <time>2010-03-31T12:06:24Z</time>
      </trkpt>
      <trkpt lat="45.996142" lon="8.351958">
        <ele>216.3999939</ele>
        <time>2010-03-31T12:06:29Z</time>
      </trkpt>
      <trkpt lat="45.995971" lon="8.351960">
        <ele>215.8000031</ele>
        <time>2010-03-31T12:06:34Z</time>
      </trkpt>
      <trkpt lat="45.995799" lon="8.352028">
        <ele>215.3999939</ele>
        <time>2010-03-31T12:06:39Z</time>
      </trkpt>
      <trkpt lat="45.995578" lon="8.352073">
        <ele>214.6000061</ele>
        <time>2010-03-31T12:06:45Z</time>
      </trkpt>
      <trkpt lat="45.995325" lon="8.352089">
        <ele>214.0000000</ele>
        <time>2010-03-31T12:06:52Z</time>
      </trkpt>
      <trkpt lat="45.995078" lon="8.352118">
        <ele>214.3999939</ele>
        <time>2010-03-31T12:07:00Z</time>
      </trkpt>
      <trkpt lat="45.994858" lon="8.352147">
        <ele>214.3999939</ele>
        <time>2010-03-31T12:07:06Z</time>
      </trkpt>
      <trkpt lat="45.994553" lon="8.352294">
        <ele>213.3999939</ele>
        <time>2010-03-31T12:07:14Z</time>
      </trkpt>
      <trkpt lat="45.994452" lon="8.352429">
        <ele>213.1999969</ele>
        <time>2010-03-31T12:07:18Z</time>
      </trkpt>
      <trkpt lat="45.994322" lon="8.352575">
        <ele>213.8000031</ele>
        <time>2010-03-31T12:07:23Z</time>
      </trkpt>
      <trkpt lat="45.994150" lon="8.352834">
        <ele>213.8000031</ele>
        <time>2010-03-31T12:07:30Z</time>
      </trkpt>
      <trkpt lat="45.993952" lon="8.353162">
        <ele>213.6000061</ele>
        <time>2010-03-31T12:07:38Z</time>
      </trkpt>
      <trkpt lat="45.993840" lon="8.353377">
        <ele>213.1999969</ele>
        <time>2010-03-31T12:07:43Z</time>
      </trkpt>
      <trkpt lat="45.993648" lon="8.353793">
        <ele>212.1999969</ele>
        <time>2010-03-31T12:07:52Z</time>
      </trkpt>
      <trkpt lat="45.993549" lon="8.354107">
        <ele>212.0000000</ele>
        <time>2010-03-31T12:07:58Z</time>
      </trkpt>
      <trkpt lat="45.993450" lon="8.354362">
        <ele>213.0000000</ele>
        <time>2010-03-31T12:08:04Z</time>
      </trkpt>
      <trkpt lat="45.993321" lon="8.354572">
        <ele>213.1999969</ele>
        <time>2010-03-31T12:08:10Z</time>
      </trkpt>
      <trkpt lat="45.993189" lon="8.355053">
        <ele>214.6000061</ele>
        <time>2010-03-31T12:08:20Z</time>
      </trkpt>
      <trkpt lat="45.993079" lon="8.355380">
        <ele>214.0000000</ele>
        <time>2010-03-31T12:08:27Z</time>
      </trkpt>
      <trkpt lat="45.992990" lon="8.355656">
        <ele>213.1999969</ele>
        <time>2010-03-31T12:08:33Z</time>
      </trkpt>
      <trkpt lat="45.992877" lon="8.355983">
        <ele>213.1999969</ele>
        <time>2010-03-31T12:08:40Z</time>
      </trkpt>
      <trkpt lat="45.992733" lon="8.356369">
        <ele>212.6000061</ele>
        <time>2010-03-31T12:08:48Z</time>
      </trkpt>
      <trkpt lat="45.992558" lon="8.356892">
        <ele>213.3999939</ele>
        <time>2010-03-31T12:08:58Z</time>
      </trkpt>
      <trkpt lat="45.992462" lon="8.357152">
        <ele>213.6000061</ele>
        <time>2010-03-31T12:09:03Z</time>
      </trkpt>
      <trkpt lat="45.992373" lon="8.357421">
        <ele>213.8000031</ele>
        <time>2010-03-31T12:09:08Z</time>
      </trkpt>
      <trkpt lat="45.992225" lon="8.357866">
        <ele>214.0000000</ele>
        <time>2010-03-31T12:09:16Z</time>
      </trkpt>
      <trkpt lat="45.991988" lon="8.358588">
        <ele>214.3999939</ele>
        <time>2010-03-31T12:09:29Z</time>
      </trkpt>
      <trkpt lat="45.991814" lon="8.359125">
        <ele>215.1999969</ele>
        <time>2010-03-31T12:09:39Z</time>
      </trkpt>
      <trkpt lat="45.991687" lon="8.359506">
        <ele>215.1999969</ele>
        <time>2010-03-31T12:09:46Z</time>
      </trkpt>
      <trkpt lat="45.991541" lon="8.360000">
        <ele>215.3999939</ele>
        <time>2010-03-31T12:09:55Z</time>
      </trkpt>
      <trkpt lat="45.991337" lon="8.360659">
        <ele>215.8000031</ele>
        <time>2010-03-31T12:10:07Z</time>
      </trkpt>
      <trkpt lat="45.991168" lon="8.361214">
        <ele>216.0000000</ele>
        <time>2010-03-31T12:10:17Z</time>
      </trkpt>
      <trkpt lat="45.990993" lon="8.361796">
        <ele>215.8000031</ele>
        <time>2010-03-31T12:10:27Z</time>
      </trkpt>
      <trkpt lat="45.990887" lon="8.362259">
        <ele>216.0000000</ele>
        <time>2010-03-31T12:10:35Z</time>
      </trkpt>
      <trkpt lat="45.990832" lon="8.362489">
        <ele>216.0000000</ele>
        <time>2010-03-31T12:10:39Z</time>
      </trkpt>
      <trkpt lat="45.990645" lon="8.362976">
        <ele>215.8000031</ele>
        <time>2010-03-31T12:10:48Z</time>
      </trkpt>
      <trkpt lat="45.990513" lon="8.363438">
        <ele>215.3999939</ele>
        <time>2010-03-31T12:10:56Z</time>
      </trkpt>
      <trkpt lat="45.990387" lon="8.363861">
        <ele>215.8000031</ele>
        <time>2010-03-31T12:11:04Z</time>
      </trkpt>
      <trkpt lat="45.990352" lon="8.364103">
        <ele>215.8000031</ele>
        <time>2010-03-31T12:11:08Z</time>
      </trkpt>
      <trkpt lat="45.990360" lon="8.364685">
        <ele>215.3999939</ele>
        <time>2010-03-31T12:11:17Z</time>
      </trkpt>
      <trkpt lat="45.990379" lon="8.365164">
        <ele>215.0000000</ele>
        <time>2010-03-31T12:11:25Z</time>
      </trkpt>
      <trkpt lat="45.990424" lon="8.365574">
        <ele>214.8000031</ele>
        <time>2010-03-31T12:11:37Z</time>
      </trkpt>
      <trkpt lat="45.990505" lon="8.366763">
        <ele>218.8000031</ele>
        <time>2010-03-31T12:12:42Z</time>
      </trkpt>
      <trkpt lat="45.990531" lon="8.367241">
        <ele>216.8000031</ele>
        <time>2010-03-31T12:13:06Z</time>
      </trkpt>
      <trkpt lat="45.990561" lon="8.367471">
        <ele>216.3999939</ele>
        <time>2010-03-31T12:13:13Z</time>
      </trkpt>
      <trkpt lat="45.990547" lon="8.367903">
        <ele>216.1999969</ele>
        <time>2010-03-31T12:13:27Z</time>
      </trkpt>
      <trkpt lat="45.990534" lon="8.368142">
        <ele>216.1999969</ele>
        <time>2010-03-31T12:13:38Z</time>
      </trkpt>
      <trkpt lat="45.990272" lon="8.368880">
        <ele>216.8000031</ele>
        <time>2010-03-31T12:14:26Z</time>
      </trkpt>
      <trkpt lat="45.990187" lon="8.369160">
        <ele>216.6000061</ele>
        <time>2010-03-31T12:14:35Z</time>
      </trkpt>
      <trkpt lat="45.990105" lon="8.369401">
        <ele>216.6000061</ele>
        <time>2010-03-31T12:14:43Z</time>
      </trkpt>
      <trkpt lat="45.990005" lon="8.369690">
        <ele>216.8000031</ele>
        <time>2010-03-31T12:14:52Z</time>
      </trkpt>
      <trkpt lat="45.989924" lon="8.369964">
        <ele>216.6000061</ele>
        <time>2010-03-31T12:15:00Z</time>
      </trkpt>
      <trkpt lat="45.989932" lon="8.370221">
        <ele>216.0000000</ele>
        <time>2010-03-31T12:15:07Z</time>
      </trkpt>
      <trkpt lat="45.990005" lon="8.370381">
        <ele>215.8000031</ele>
        <time>2010-03-31T12:15:13Z</time>
      </trkpt>
      <trkpt lat="45.990215" lon="8.370617">
        <ele>215.0000000</ele>
        <time>2010-03-31T12:15:41Z</time>
      </trkpt>
      <trkpt lat="45.990386" lon="8.370804">
        <ele>214.3999939</ele>
        <time>2010-03-31T12:15:49Z</time>
      </trkpt>
      <trkpt lat="45.990565" lon="8.371001">
        <ele>214.0000000</ele>
        <time>2010-03-31T12:15:57Z</time>
      </trkpt>
      <trkpt lat="45.990733" lon="8.371184">
        <ele>213.6000061</ele>
        <time>2010-03-31T12:16:05Z</time>
      </trkpt>
      <trkpt lat="45.990944" lon="8.371410">
        <ele>213.0000000</ele>
        <time>2010-03-31T12:16:14Z</time>
      </trkpt>
      <trkpt lat="45.991116" lon="8.371672">
        <ele>213.0000000</ele>
        <time>2010-03-31T12:16:25Z</time>
      </trkpt>
      <trkpt lat="45.991210" lon="8.371869">
        <ele>213.3999939</ele>
        <time>2010-03-31T12:17:12Z</time>
      </trkpt>
      <trkpt lat="45.991321" lon="8.372022">
        <ele>212.6000061</ele>
        <time>2010-03-31T12:17:18Z</time>
      </trkpt>
      <trkpt lat="45.991438" lon="8.372113">
        <ele>212.3999939</ele>
        <time>2010-03-31T12:17:23Z</time>
      </trkpt>
      <trkpt lat="45.991602" lon="8.372201">
        <ele>214.1999969</ele>
        <time>2010-03-31T12:17:29Z</time>
      </trkpt>
      <trkpt lat="45.991755" lon="8.372196">
        <ele>215.0000000</ele>
        <time>2010-03-31T12:17:34Z</time>
      </trkpt>
      <trkpt lat="45.991939" lon="8.372178">
        <ele>214.1999969</ele>
        <time>2010-03-31T12:17:40Z</time>
      </trkpt>
      <trkpt lat="45.992111" lon="8.372275">
        <ele>216.0000000</ele>
        <time>2010-03-31T12:17:46Z</time>
      </trkpt>
      <trkpt lat="45.992299" lon="8.372311">
        <ele>216.3999939</ele>
        <time>2010-03-31T12:17:52Z</time>
      </trkpt>
      <trkpt lat="45.992515" lon="8.372262">
        <ele>216.1999969</ele>
        <time>2010-03-31T12:17:58Z</time>
      </trkpt>
      <trkpt lat="45.992789" lon="8.372164">
        <ele>215.0000000</ele>
        <time>2010-03-31T12:18:06Z</time>
      </trkpt>
      <trkpt lat="45.992864" lon="8.372270">
        <ele>214.8000031</ele>
        <time>2010-03-31T12:18:11Z</time>
      </trkpt>
      <trkpt lat="45.992862" lon="8.372426">
        <ele>214.6000061</ele>
        <time>2010-03-31T12:18:17Z</time>
      </trkpt>
      <trkpt lat="45.992819" lon="8.372618">
        <ele>214.0000000</ele>
        <time>2010-03-31T12:18:23Z</time>
      </trkpt>
      <trkpt lat="45.992773" lon="8.372799">
        <ele>213.8000031</ele>
        <time>2010-03-31T12:18:29Z</time>
      </trkpt>
      <trkpt lat="45.992713" lon="8.373090">
        <ele>214.0000000</ele>
        <time>2010-03-31T12:18:38Z</time>
      </trkpt>
      <trkpt lat="45.992661" lon="8.373345">
        <ele>213.3999939</ele>
        <time>2010-03-31T12:18:46Z</time>
      </trkpt>
      <trkpt lat="45.992618" lon="8.373571">
        <ele>213.1999969</ele>
        <time>2010-03-31T12:18:53Z</time>
      </trkpt>
      <trkpt lat="45.992588" lon="8.373798">
        <ele>212.6000061</ele>
        <time>2010-03-31T12:18:59Z</time>
      </trkpt>
      <trkpt lat="45.992549" lon="8.374004">
        <ele>212.0000000</ele>
        <time>2010-03-31T12:19:04Z</time>
      </trkpt>
      <trkpt lat="45.992517" lon="8.374211">
        <ele>210.8000031</ele>
        <time>2010-03-31T12:19:09Z</time>
      </trkpt>
      <trkpt lat="45.992453" lon="8.374535">
        <ele>211.1999969</ele>
        <time>2010-03-31T12:19:16Z</time>
      </trkpt>
      <trkpt lat="45.992394" lon="8.374840">
        <ele>211.3999939</ele>
        <time>2010-03-31T12:19:23Z</time>
      </trkpt>
      <trkpt lat="45.992335" lon="8.375116">
        <ele>211.6000061</ele>
        <time>2010-03-31T12:19:30Z</time>
      </trkpt>
      <trkpt lat="45.992274" lon="8.375416">
        <ele>212.1999969</ele>
        <time>2010-03-31T12:19:38Z</time>
      </trkpt>
      <trkpt lat="45.992237" lon="8.375606">
        <ele>212.3999939</ele>
        <time>2010-03-31T12:19:43Z</time>
      </trkpt>
      <trkpt lat="45.992179" lon="8.375926">
        <ele>211.8000031</ele>
        <time>2010-03-31T12:19:50Z</time>
      </trkpt>
      <trkpt lat="45.992094" lon="8.376395">
        <ele>211.8000031</ele>
        <time>2010-03-31T12:19:59Z</time>
      </trkpt>
      <trkpt lat="45.991987" lon="8.376844">
        <ele>211.1999969</ele>
        <time>2010-03-31T12:20:07Z</time>
      </trkpt>
      <trkpt lat="45.991917" lon="8.377173">
        <ele>211.6000061</ele>
        <time>2010-03-31T12:20:13Z</time>
      </trkpt>
      <trkpt lat="45.991863" lon="8.377409">
        <ele>212.6000061</ele>
        <time>2010-03-31T12:20:18Z</time>
      </trkpt>
      <trkpt lat="45.991782" lon="8.377619">
        <ele>212.8000031</ele>
        <time>2010-03-31T12:20:23Z</time>
      </trkpt>
      <trkpt lat="45.991626" lon="8.377847">
        <ele>212.1999969</ele>
        <time>2010-03-31T12:20:29Z</time>
      </trkpt>
      <trkpt lat="45.991437" lon="8.378058">
        <ele>213.6000061</ele>
        <time>2010-03-31T12:20:36Z</time>
      </trkpt>
      <trkpt lat="45.991266" lon="8.378143">
        <ele>213.8000031</ele>
        <time>2010-03-31T12:20:41Z</time>
      </trkpt>
      <trkpt lat="45.990993" lon="8.378271">
        <ele>213.3999939</ele>
        <time>2010-03-31T12:20:48Z</time>
      </trkpt>
      <trkpt lat="45.990475" lon="8.378564">
        <ele>212.8000031</ele>
        <time>2010-03-31T12:21:00Z</time>
      </trkpt>
      <trkpt lat="45.989817" lon="8.378947">
        <ele>212.6000061</ele>
        <time>2010-03-31T12:21:15Z</time>
      </trkpt>
      <trkpt lat="45.989238" lon="8.379285">
        <ele>213.0000000</ele>
        <time>2010-03-31T12:21:28Z</time>
      </trkpt>
      <trkpt lat="45.988758" lon="8.379601">
        <ele>213.6000061</ele>
        <time>2010-03-31T12:21:39Z</time>
      </trkpt>
      <trkpt lat="45.988505" lon="8.379907">
        <ele>213.8000031</ele>
        <time>2010-03-31T12:21:46Z</time>
      </trkpt>
      <trkpt lat="45.988278" lon="8.380333">
        <ele>214.1999969</ele>
        <time>2010-03-31T12:21:54Z</time>
      </trkpt>
      <trkpt lat="45.988158" lon="8.380681">
        <ele>215.0000000</ele>
        <time>2010-03-31T12:22:01Z</time>
      </trkpt>
      <trkpt lat="45.987751" lon="8.381599">
        <ele>216.8000031</ele>
        <time>2010-03-31T12:23:35Z</time>
      </trkpt>
      <trkpt lat="45.987481" lon="8.381830">
        <ele>218.6000061</ele>
        <time>2010-03-31T12:23:42Z</time>
      </trkpt>
      <trkpt lat="45.987183" lon="8.382013">
        <ele>220.0000000</ele>
        <time>2010-03-31T12:23:49Z</time>
      </trkpt>
      <trkpt lat="45.986817" lon="8.382228">
        <ele>220.3999939</ele>
        <time>2010-03-31T12:23:58Z</time>
      </trkpt>
      <trkpt lat="45.986488" lon="8.382422">
        <ele>219.8000031</ele>
        <time>2010-03-31T12:24:06Z</time>
      </trkpt>
      <trkpt lat="45.986126" lon="8.382623">
        <ele>219.6000061</ele>
        <time>2010-03-31T12:24:15Z</time>
      </trkpt>
      <trkpt lat="45.985844" lon="8.382761">
        <ele>219.6000061</ele>
        <time>2010-03-31T12:24:26Z</time>
      </trkpt>
      <trkpt lat="45.985604" lon="8.382984">
        <ele>219.0000000</ele>
        <time>2010-03-31T12:24:34Z</time>
      </trkpt>
      <trkpt lat="45.985456" lon="8.383336">
        <ele>218.1999969</ele>
        <time>2010-03-31T12:24:40Z</time>
      </trkpt>
      <trkpt lat="45.985430" lon="8.383640">
        <ele>217.6000061</ele>
        <time>2010-03-31T12:24:44Z</time>
      </trkpt>
      <trkpt lat="45.985518" lon="8.384364">
        <ele>216.1999969</ele>
        <time>2010-03-31T12:24:53Z</time>
      </trkpt>
      <trkpt lat="45.985688" lon="8.385491">
        <ele>214.1999969</ele>
        <time>2010-03-31T12:25:06Z</time>
      </trkpt>
      <trkpt lat="45.985811" lon="8.386381">
        <ele>213.3999939</ele>
        <time>2010-03-31T12:25:16Z</time>
      </trkpt>
      <trkpt lat="45.985960" lon="8.387343">
        <ele>213.1999969</ele>
        <time>2010-03-31T12:25:27Z</time>
      </trkpt>
      <trkpt lat="45.986136" lon="8.388620">
        <ele>213.3999939</ele>
        <time>2010-03-31T12:25:41Z</time>
      </trkpt>
      <trkpt lat="45.986259" lon="8.389621">
        <ele>213.3999939</ele>
        <time>2010-03-31T12:25:52Z</time>
      </trkpt>
      <trkpt lat="45.986388" lon="8.390256">
        <ele>213.8000031</ele>
        <time>2010-03-31T12:25:59Z</time>
      </trkpt>
      <trkpt lat="45.986578" lon="8.391042">
        <ele>213.1999969</ele>
        <time>2010-03-31T12:26:08Z</time>
      </trkpt>
      <trkpt lat="45.986808" lon="8.391897">
        <ele>213.1999969</ele>
        <time>2010-03-31T12:26:18Z</time>
      </trkpt>
      <trkpt lat="45.987104" lon="8.393021">
        <ele>213.1999969</ele>
        <time>2010-03-31T12:26:31Z</time>
      </trkpt>
      <trkpt lat="45.987161" lon="8.393279">
        <ele>213.3999939</ele>
        <time>2010-03-31T12:26:34Z</time>
      </trkpt>
      <trkpt lat="45.987172" lon="8.393712">
        <ele>214.1999969</ele>
        <time>2010-03-31T12:26:39Z</time>
      </trkpt>
      <trkpt lat="45.987069" lon="8.394192">
        <ele>214.3999939</ele>
        <time>2010-03-31T12:26:45Z</time>
      </trkpt>
      <trkpt lat="45.986967" lon="8.394636">
        <ele>215.0000000</ele>
        <time>2010-03-31T12:26:50Z</time>
      </trkpt>
      <trkpt lat="45.986830" lon="8.395434">
        <ele>213.8000031</ele>
        <time>2010-03-31T12:26:59Z</time>
      </trkpt>
      <trkpt lat="45.986700" lon="8.396079">
        <ele>213.1999969</ele>
        <time>2010-03-31T12:27:07Z</time>
      </trkpt>
      <trkpt lat="45.986574" lon="8.396709">
        <ele>213.6000061</ele>
        <time>2010-03-31T12:27:15Z</time>
      </trkpt>
      <trkpt lat="45.986424" lon="8.397475">
        <ele>214.0000000</ele>
        <time>2010-03-31T12:27:25Z</time>
      </trkpt>
      <trkpt lat="45.986261" lon="8.398376">
        <ele>214.0000000</ele>
        <time>2010-03-31T12:27:36Z</time>
      </trkpt>
      <trkpt lat="45.986176" lon="8.398868">
        <ele>214.6000061</ele>
        <time>2010-03-31T12:27:42Z</time>
      </trkpt>
      <trkpt lat="45.986021" lon="8.399713">
        <ele>213.3999939</ele>
        <time>2010-03-31T12:27:52Z</time>
      </trkpt>
      <trkpt lat="45.985919" lon="8.400297">
        <ele>212.8000031</ele>
        <time>2010-03-31T12:27:59Z</time>
      </trkpt>
      <trkpt lat="45.985815" lon="8.400691">
        <ele>213.3999939</ele>
        <time>2010-03-31T12:28:04Z</time>
      </trkpt>
      <trkpt lat="45.985603" lon="8.401001">
        <ele>213.0000000</ele>
        <time>2010-03-31T12:28:09Z</time>
      </trkpt>
      <trkpt lat="45.985393" lon="8.401202">
        <ele>213.8000031</ele>
        <time>2010-03-31T12:28:13Z</time>
      </trkpt>
      <trkpt lat="45.985076" lon="8.401419">
        <ele>220.1999969</ele>
        <time>2010-03-31T12:31:10Z</time>
      </trkpt>
      <trkpt lat="45.984850" lon="8.401658">
        <ele>218.0000000</ele>
        <time>2010-03-31T12:31:17Z</time>
      </trkpt>
      <trkpt lat="45.984562" lon="8.401913">
        <ele>216.3999939</ele>
        <time>2010-03-31T12:31:24Z</time>
      </trkpt>
      <trkpt lat="45.984178" lon="8.402251">
        <ele>215.3999939</ele>
        <time>2010-03-31T12:31:33Z</time>
      </trkpt>
      <trkpt lat="45.983885" lon="8.402520">
        <ele>213.8000031</ele>
        <time>2010-03-31T12:31:40Z</time>
      </trkpt>
      <trkpt lat="45.983615" lon="8.402764">
        <ele>212.8000031</ele>
        <time>2010-03-31T12:31:47Z</time>
      </trkpt>
      <trkpt lat="45.983496" lon="8.402871">
        <ele>212.6000061</ele>
        <time>2010-03-31T12:31:52Z</time>
      </trkpt>
      <trkpt lat="45.983514" lon="8.403006">
        <ele>212.8000031</ele>
        <time>2010-03-31T12:31:56Z</time>
      </trkpt>
      <trkpt lat="45.983618" lon="8.403234">
        <ele>213.6000061</ele>
        <time>2010-03-31T12:32:04Z</time>
      </trkpt>
      <trkpt lat="45.983601" lon="8.403517">
        <ele>212.3999939</ele>
        <time>2010-03-31T12:33:26Z</time>
      </trkpt>
      <trkpt lat="45.983573" lon="8.403714">
        <ele>212.3999939</ele>
        <time>2010-03-31T12:33:31Z</time>
      </trkpt>
      <trkpt lat="45.983452" lon="8.403908">
        <ele>213.6000061</ele>
        <time>2010-03-31T12:33:36Z</time>
      </trkpt>
      <trkpt lat="45.983237" lon="8.404177">
        <ele>213.8000031</ele>
        <time>2010-03-31T12:33:43Z</time>
      </trkpt>
      <trkpt lat="45.982997" lon="8.404389">
        <ele>212.0000000</ele>
        <time>2010-03-31T12:33:50Z</time>
      </trkpt>
      <trkpt lat="45.982819" lon="8.404552">
        <ele>211.3999939</ele>
        <time>2010-03-31T12:33:55Z</time>
      </trkpt>
      <trkpt lat="45.982709" lon="8.404736">
        <ele>210.8000031</ele>
        <time>2010-03-31T12:33:59Z</time>
      </trkpt>
      <trkpt lat="45.982584" lon="8.404908">
        <ele>211.0000000</ele>
        <time>2010-03-31T12:34:03Z</time>
      </trkpt>
      <trkpt lat="45.982266" lon="8.405231">
        <ele>211.1999969</ele>
        <time>2010-03-31T12:34:12Z</time>
      </trkpt>
      <trkpt lat="45.982036" lon="8.405500">
        <ele>211.1999969</ele>
        <time>2010-03-31T12:34:19Z</time>
      </trkpt>
      <trkpt lat="45.981740" lon="8.405807">
        <ele>210.6000061</ele>
        <time>2010-03-31T12:34:27Z</time>
      </trkpt>
      <trkpt lat="45.981423" lon="8.406077">
        <ele>210.3999939</ele>
        <time>2010-03-31T12:34:35Z</time>
      </trkpt>
      <trkpt lat="45.981044" lon="8.406434">
        <ele>210.3999939</ele>
        <time>2010-03-31T12:34:45Z</time>
      </trkpt>
      <trkpt lat="45.980830" lon="8.406620">
        <ele>210.1999969</ele>
        <time>2010-03-31T12:34:51Z</time>
      </trkpt>
      <trkpt lat="45.980555" lon="8.406897">
        <ele>209.8000031</ele>
        <time>2010-03-31T12:34:58Z</time>
      </trkpt>
      <trkpt lat="45.980287" lon="8.407194">
        <ele>208.6000061</ele>
        <time>2010-03-31T12:35:05Z</time>
      </trkpt>
      <trkpt lat="45.980090" lon="8.407397">
        <ele>207.3999939</ele>
        <time>2010-03-31T12:35:10Z</time>
      </trkpt>
      <trkpt lat="45.979941" lon="8.407552">
        <ele>206.6000061</ele>
        <time>2010-03-31T12:35:17Z</time>
      </trkpt>
      <trkpt lat="45.979761" lon="8.407713">
        <ele>205.6000061</ele>
        <time>2010-03-31T12:35:56Z</time>
      </trkpt>
      <trkpt lat="45.979595" lon="8.407887">
        <ele>206.0000000</ele>
        <time>2010-03-31T12:36:01Z</time>
      </trkpt>
      <trkpt lat="45.979264" lon="8.408320">
        <ele>206.1999969</ele>
        <time>2010-03-31T12:36:11Z</time>
      </trkpt>
      <trkpt lat="45.978927" lon="8.408723">
        <ele>206.0000000</ele>
        <time>2010-03-31T12:36:20Z</time>
      </trkpt>
      <trkpt lat="45.978636" lon="8.408904">
        <ele>206.3999939</ele>
        <time>2010-03-31T12:36:27Z</time>
      </trkpt>
      <trkpt lat="45.978326" lon="8.408923">
        <ele>206.8000031</ele>
        <time>2010-03-31T12:36:34Z</time>
      </trkpt>
      <trkpt lat="45.977953" lon="8.408920">
        <ele>207.1999969</ele>
        <time>2010-03-31T12:36:42Z</time>
      </trkpt>
      <trkpt lat="45.977862" lon="8.408924">
        <ele>207.6000061</ele>
        <time>2010-03-31T12:36:44Z</time>
      </trkpt>
      <trkpt lat="45.977690" lon="8.409006">
        <ele>207.8000031</ele>
        <time>2010-03-31T12:36:48Z</time>
      </trkpt>
      <trkpt lat="45.977303" lon="8.409363">
        <ele>208.3999939</ele>
        <time>2010-03-31T12:36:58Z</time>
      </trkpt>
      <trkpt lat="45.977138" lon="8.409458">
        <ele>208.1999969</ele>
        <time>2010-03-31T12:37:03Z</time>
      </trkpt>
      <trkpt lat="45.977026" lon="8.409229">
        <ele>209.1999969</ele>
        <time>2010-03-31T12:37:08Z</time>
      </trkpt>
      <trkpt lat="45.976801" lon="8.408949">
        <ele>211.6000061</ele>
        <time>2010-03-31T12:37:20Z</time>
      </trkpt>
      <trkpt lat="45.976537" lon="8.409113">
        <ele>210.1999969</ele>
        <time>2010-03-31T12:37:28Z</time>
      </trkpt>
      <trkpt lat="45.976214" lon="8.409385">
        <ele>212.0000000</ele>
        <time>2010-03-31T12:37:36Z</time>
      </trkpt>
      <trkpt lat="45.976022" lon="8.409556">
        <ele>211.8000031</ele>
        <time>2010-03-31T12:37:41Z</time>
      </trkpt>
      <trkpt lat="45.975614" lon="8.409920">
        <ele>210.6000061</ele>
        <time>2010-03-31T12:37:51Z</time>
      </trkpt>
      <trkpt lat="45.975213" lon="8.410289">
        <ele>209.8000031</ele>
        <time>2010-03-31T12:38:01Z</time>
      </trkpt>
      <trkpt lat="45.974862" lon="8.410599">
        <ele>210.6000061</ele>
        <time>2010-03-31T12:38:10Z</time>
      </trkpt>
      <trkpt lat="45.974465" lon="8.410963">
        <ele>210.8000031</ele>
        <time>2010-03-31T12:38:21Z</time>
      </trkpt>
      <trkpt lat="45.974215" lon="8.411185">
        <ele>211.1999969</ele>
        <time>2010-03-31T12:38:28Z</time>
      </trkpt>
      <trkpt lat="45.973843" lon="8.411534">
        <ele>211.8000031</ele>
        <time>2010-03-31T12:38:39Z</time>
      </trkpt>
      <trkpt lat="45.973500" lon="8.411844">
        <ele>212.3999939</ele>
        <time>2010-03-31T12:38:49Z</time>
      </trkpt>
      <trkpt lat="45.973191" lon="8.412136">
        <ele>212.3999939</ele>
        <time>2010-03-31T12:38:58Z</time>
      </trkpt>
      <trkpt lat="45.972930" lon="8.412436">
        <ele>213.3999939</ele>
        <time>2010-03-31T12:39:06Z</time>
      </trkpt>
      <trkpt lat="45.972740" lon="8.412634">
        <ele>213.0000000</ele>
        <time>2010-03-31T12:39:12Z</time>
      </trkpt>
      <trkpt lat="45.972410" lon="8.412991">
        <ele>214.0000000</ele>
        <time>2010-03-31T12:39:22Z</time>
      </trkpt>
      <trkpt lat="45.972050" lon="8.413387">
        <ele>216.8000031</ele>
        <time>2010-03-31T12:39:33Z</time>
      </trkpt>
      <trkpt lat="45.971851" lon="8.413656">
        <ele>219.0000000</ele>
        <time>2010-03-31T12:39:40Z</time>
      </trkpt>
      <trkpt lat="45.971783" lon="8.413833">
        <ele>219.1999969</ele>
        <time>2010-03-31T12:39:45Z</time>
      </trkpt>
      <trkpt lat="45.971804" lon="8.414073">
        <ele>218.6000061</ele>
        <time>2010-03-31T12:39:51Z</time>
      </trkpt>
      <trkpt lat="45.971995" lon="8.414250">
        <ele>217.8000031</ele>
        <time>2010-03-31T12:39:59Z</time>
      </trkpt>
      <trkpt lat="45.972090" lon="8.414434">
        <ele>218.3999939</ele>
        <time>2010-03-31T12:40:06Z</time>
      </trkpt>
      <trkpt lat="45.972224" lon="8.414609">
        <ele>217.8000031</ele>
        <time>2010-03-31T12:40:11Z</time>
      </trkpt>
      <trkpt lat="45.972448" lon="8.414950">
        <ele>216.6000061</ele>
        <time>2010-03-31T12:40:17Z</time>
      </trkpt>
      <trkpt lat="45.972669" lon="8.415417">
        <ele>214.8000031</ele>
        <time>2010-03-31T12:40:23Z</time>
      </trkpt>
      <trkpt lat="45.972930" lon="8.416047">
        <ele>212.6000061</ele>
        <time>2010-03-31T12:40:30Z</time>
      </trkpt>
      <trkpt lat="45.973053" lon="8.416631">
        <ele>211.6000061</ele>
        <time>2010-03-31T12:40:36Z</time>
      </trkpt>
      <trkpt lat="45.973196" lon="8.417405">
        <ele>210.3999939</ele>
        <time>2010-03-31T12:40:44Z</time>
      </trkpt>
      <trkpt lat="45.973337" lon="8.418057">
        <ele>209.3999939</ele>
        <time>2010-03-31T12:40:51Z</time>
      </trkpt>
      <trkpt lat="45.973426" lon="8.418578">
        <ele>208.6000061</ele>
        <time>2010-03-31T12:40:57Z</time>
      </trkpt>
      <trkpt lat="45.973429" lon="8.419039">
        <ele>208.6000061</ele>
        <time>2010-03-31T12:41:04Z</time>
      </trkpt>
      <trkpt lat="45.973473" lon="8.419431">
        <ele>208.8000031</ele>
        <time>2010-03-31T12:41:09Z</time>
      </trkpt>
      <trkpt lat="45.973769" lon="8.420085">
        <ele>210.0000000</ele>
        <time>2010-03-31T12:41:21Z</time>
      </trkpt>
      <trkpt lat="45.973908" lon="8.420379">
        <ele>211.3999939</ele>
        <time>2010-03-31T12:41:29Z</time>
      </trkpt>
      <trkpt lat="45.974023" lon="8.420623">
        <ele>215.0000000</ele>
        <time>2010-03-31T12:42:05Z</time>
      </trkpt>
      <trkpt lat="45.974167" lon="8.420889">
        <ele>217.3999939</ele>
        <time>2010-03-31T12:42:12Z</time>
      </trkpt>
      <trkpt lat="45.974276" lon="8.421080">
        <ele>216.3999939</ele>
        <time>2010-03-31T12:42:17Z</time>
      </trkpt>
      <trkpt lat="45.974414" lon="8.421332">
        <ele>216.1999969</ele>
        <time>2010-03-31T12:42:24Z</time>
      </trkpt>
      <trkpt lat="45.974583" lon="8.421631">
        <ele>215.6000061</ele>
        <time>2010-03-31T12:43:07Z</time>
      </trkpt>
      <trkpt lat="45.974793" lon="8.422010">
        <ele>215.8000031</ele>
        <time>2010-03-31T12:43:16Z</time>
      </trkpt>
      <trkpt lat="45.974954" lon="8.422299">
        <ele>215.0000000</ele>
        <time>2010-03-31T12:43:22Z</time>
      </trkpt>
      <trkpt lat="45.975116" lon="8.422573">
        <ele>213.6000061</ele>
        <time>2010-03-31T12:43:27Z</time>
      </trkpt>
      <trkpt lat="45.974799" lon="8.422978">
        <ele>212.6000061</ele>
        <time>2010-03-31T12:55:01Z</time>
      </trkpt>
      <trkpt lat="45.974695" lon="8.423121">
        <ele>211.3999939</ele>
        <time>2010-03-31T12:55:05Z</time>
      </trkpt>
      <trkpt lat="45.974624" lon="8.423218">
        <ele>210.1999969</ele>
        <time>2010-03-31T12:55:10Z</time>
      </trkpt>
      <trkpt lat="45.974540" lon="8.423333">
        <ele>207.1999969</ele>
        <time>2010-03-31T13:03:26Z</time>
      </trkpt>
      <trkpt lat="45.974284" lon="8.423650">
        <ele>207.3999939</ele>
        <time>2010-03-31T13:03:35Z</time>
      </trkpt>
      <trkpt lat="45.973949" lon="8.424052">
        <ele>207.1999969</ele>
        <time>2010-03-31T13:03:45Z</time>
      </trkpt>
      <trkpt lat="45.973604" lon="8.424399">
        <ele>207.0000000</ele>
        <time>2010-03-31T13:03:54Z</time>
      </trkpt>
      <trkpt lat="45.973250" lon="8.424746">
        <ele>207.0000000</ele>
        <time>2010-03-31T13:04:04Z</time>
      </trkpt>
      <trkpt lat="45.972947" lon="8.425043">
        <ele>206.1999969</ele>
        <time>2010-03-31T13:04:12Z</time>
      </trkpt>
      <trkpt lat="45.972830" lon="8.425158">
        <ele>206.1999969</ele>
        <time>2010-03-31T13:04:15Z</time>
      </trkpt>
      <trkpt lat="45.972594" lon="8.425467">
        <ele>205.8000031</ele>
        <time>2010-03-31T13:04:24Z</time>
      </trkpt>
      <trkpt lat="45.962988" lon="8.434936">
        <ele>205.3999939</ele>
        <time>2010-03-31T13:08:21Z</time>
      </trkpt>
      <trkpt lat="45.962732" lon="8.434947">
        <ele>205.6000061</ele>
        <time>2010-03-31T13:08:26Z</time>
      </trkpt>
      <trkpt lat="45.962378" lon="8.435214">
        <ele>203.0000000</ele>
        <time>2010-03-31T13:08:32Z</time>
      </trkpt>
      <trkpt lat="45.962134" lon="8.435399">
        <ele>203.6000061</ele>
        <time>2010-03-31T13:08:36Z</time>
      </trkpt>
      <trkpt lat="45.961871" lon="8.435512">
        <ele>205.1999969</ele>
        <time>2010-03-31T13:08:41Z</time>
      </trkpt>
      <trkpt lat="45.961382" lon="8.435574">
        <ele>206.0000000</ele>
        <time>2010-03-31T13:08:50Z</time>
      </trkpt>
      <trkpt lat="45.960943" lon="8.435602">
        <ele>206.3999939</ele>
        <time>2010-03-31T13:08:58Z</time>
      </trkpt>
      <trkpt lat="45.960433" lon="8.435594">
        <ele>205.8000031</ele>
        <time>2010-03-31T13:09:07Z</time>
      </trkpt>
      <trkpt lat="45.960203" lon="8.435633">
        <ele>205.8000031</ele>
        <time>2010-03-31T13:09:11Z</time>
      </trkpt>
      <trkpt lat="45.959963" lon="8.435816">
        <ele>206.6000061</ele>
        <time>2010-03-31T13:09:16Z</time>
      </trkpt>
      <trkpt lat="45.959757" lon="8.435855">
        <ele>206.8000031</ele>
        <time>2010-03-31T13:09:20Z</time>
      </trkpt>
      <trkpt lat="45.959464" lon="8.435803">
        <ele>206.3999939</ele>
        <time>2010-03-31T13:09:25Z</time>
      </trkpt>
      <trkpt lat="45.959066" lon="8.435844">
        <ele>206.6000061</ele>
        <time>2010-03-31T13:09:32Z</time>
      </trkpt>
      <trkpt lat="45.958741" lon="8.435899">
        <ele>206.8000031</ele>
        <time>2010-03-31T13:09:38Z</time>
      </trkpt>
      <trkpt lat="45.958423" lon="8.435877">
        <ele>207.0000000</ele>
        <time>2010-03-31T13:09:44Z</time>
      </trkpt>
      <trkpt lat="45.958263" lon="8.435860">
        <ele>206.8000031</ele>
        <time>2010-03-31T13:09:47Z</time>
      </trkpt>
      <trkpt lat="45.958103" lon="8.435804">
        <ele>206.8000031</ele>
        <time>2010-03-31T13:09:50Z</time>
      </trkpt>
      <trkpt lat="45.957730" lon="8.435647">
        <ele>206.3999939</ele>
        <time>2010-03-31T13:09:57Z</time>
      </trkpt>
      <trkpt lat="45.957531" lon="8.435483">
        <ele>206.0000000</ele>
        <time>2010-03-31T13:10:01Z</time>
      </trkpt>
      <trkpt lat="45.957311" lon="8.435354">
        <ele>206.0000000</ele>
        <time>2010-03-31T13:10:05Z</time>
      </trkpt>
      <trkpt lat="45.957024" lon="8.435342">
        <ele>205.3999939</ele>
        <time>2010-03-31T13:10:10Z</time>
      </trkpt>
      <trkpt lat="45.956799" lon="8.435401">
        <ele>205.0000000</ele>
        <time>2010-03-31T13:10:14Z</time>
      </trkpt>
      <trkpt lat="45.956644" lon="8.435331">
        <ele>205.3999939</ele>
        <time>2010-03-31T13:10:17Z</time>
      </trkpt>
      <trkpt lat="45.956494" lon="8.435205">
        <ele>205.6000061</ele>
        <time>2010-03-31T13:10:20Z</time>
      </trkpt>
      <trkpt lat="45.956227" lon="8.435092">
        <ele>205.3999939</ele>
        <time>2010-03-31T13:10:25Z</time>
      </trkpt>
      <trkpt lat="45.955934" lon="8.435101">
        <ele>204.8000031</ele>
        <time>2010-03-31T13:10:30Z</time>
      </trkpt>
      <trkpt lat="45.955468" lon="8.434981">
        <ele>204.0000000</ele>
        <time>2010-03-31T13:10:38Z</time>
      </trkpt>
      <trkpt lat="45.955013" lon="8.434747">
        <ele>205.1999969</ele>
        <time>2010-03-31T13:10:46Z</time>
      </trkpt>
      <trkpt lat="45.954842" lon="8.434639">
        <ele>205.1999969</ele>
        <time>2010-03-31T13:10:49Z</time>
      </trkpt>
      <trkpt lat="45.954607" lon="8.434652">
        <ele>205.3999939</ele>
        <time>2010-03-31T13:10:53Z</time>
      </trkpt>
      <trkpt lat="45.954372" lon="8.434721">
        <ele>204.6000061</ele>
        <time>2010-03-31T13:10:57Z</time>
      </trkpt>
      <trkpt lat="45.954062" lon="8.434695">
        <ele>203.8000031</ele>
        <time>2010-03-31T13:11:02Z</time>
      </trkpt>
      <trkpt lat="45.953724" lon="8.434664">
        <ele>204.0000000</ele>
        <time>2010-03-31T13:11:08Z</time>
      </trkpt>
      <trkpt lat="45.953201" lon="8.434614">
        <ele>202.6000061</ele>
        <time>2010-03-31T13:11:17Z</time>
      </trkpt>
      <trkpt lat="45.952555" lon="8.434454">
        <ele>202.8000031</ele>
        <time>2010-03-31T13:11:28Z</time>
      </trkpt>
      <trkpt lat="45.952199" lon="8.434420">
        <ele>202.3999939</ele>
        <time>2010-03-31T13:11:34Z</time>
      </trkpt>
      <trkpt lat="45.951733" lon="8.434421">
        <ele>202.3999939</ele>
        <time>2010-03-31T13:11:42Z</time>
      </trkpt>
      <trkpt lat="45.951359" lon="8.434283">
        <ele>200.0000000</ele>
        <time>2010-03-31T13:11:48Z</time>
      </trkpt>
      <trkpt lat="45.951040" lon="8.434182">
        <ele>201.0000000</ele>
        <time>2010-03-31T13:11:54Z</time>
      </trkpt>
      <trkpt lat="45.950714" lon="8.434029">
        <ele>202.1999969</ele>
        <time>2010-03-31T13:12:00Z</time>
      </trkpt>
      <trkpt lat="45.950512" lon="8.433872">
        <ele>201.6000061</ele>
        <time>2010-03-31T13:12:04Z</time>
      </trkpt>
      <trkpt lat="45.950245" lon="8.433841">
        <ele>202.0000000</ele>
        <time>2010-03-31T13:12:09Z</time>
      </trkpt>
      <trkpt lat="45.949719" lon="8.434104">
        <ele>203.3999939</ele>
        <time>2010-03-31T13:12:19Z</time>
      </trkpt>
      <trkpt lat="45.949314" lon="8.434325">
        <ele>204.3999939</ele>
        <time>2010-03-31T13:12:27Z</time>
      </trkpt>
      <trkpt lat="45.948787" lon="8.434617">
        <ele>204.6000061</ele>
        <time>2010-03-31T13:12:37Z</time>
      </trkpt>
      <trkpt lat="45.948251" lon="8.434918">
        <ele>205.1999969</ele>
        <time>2010-03-31T13:12:47Z</time>
      </trkpt>
      <trkpt lat="45.947604" lon="8.435290">
        <ele>204.3999939</ele>
        <time>2010-03-31T13:12:59Z</time>
      </trkpt>
      <trkpt lat="45.947052" lon="8.435586">
        <ele>204.6000061</ele>
        <time>2010-03-31T13:13:09Z</time>
      </trkpt>
      <trkpt lat="45.946497" lon="8.435882">
        <ele>205.6000061</ele>
        <time>2010-03-31T13:13:19Z</time>
      </trkpt>
      <trkpt lat="45.945936" lon="8.436179">
        <ele>205.8000031</ele>
        <time>2010-03-31T13:13:29Z</time>
      </trkpt>
      <trkpt lat="45.945448" lon="8.436442">
        <ele>207.6000061</ele>
        <time>2010-03-31T13:13:38Z</time>
      </trkpt>
      <trkpt lat="45.945131" lon="8.436634">
        <ele>206.1999969</ele>
        <time>2010-03-31T13:13:45Z</time>
      </trkpt>
      <trkpt lat="45.944608" lon="8.436937">
        <ele>204.1999969</ele>
        <time>2010-03-31T13:13:56Z</time>
      </trkpt>
      <trkpt lat="45.944215" lon="8.437136">
        <ele>204.3999939</ele>
        <time>2010-03-31T13:14:04Z</time>
      </trkpt>
      <trkpt lat="45.943752" lon="8.437407">
        <ele>204.8000031</ele>
        <time>2010-03-31T13:14:13Z</time>
      </trkpt>
      <trkpt lat="45.943592" lon="8.437482">
        <ele>205.0000000</ele>
        <time>2010-03-31T13:14:16Z</time>
      </trkpt>
      <trkpt lat="45.943263" lon="8.437467">
        <ele>205.3999939</ele>
        <time>2010-03-31T13:14:22Z</time>
      </trkpt>
      <trkpt lat="45.942924" lon="8.437516">
        <ele>206.0000000</ele>
        <time>2010-03-31T13:14:28Z</time>
      </trkpt>
      <trkpt lat="45.942675" lon="8.437454">
        <ele>206.1999969</ele>
        <time>2010-03-31T13:14:33Z</time>
      </trkpt>
      <trkpt lat="45.942459" lon="8.437380">
        <ele>207.0000000</ele>
        <time>2010-03-31T13:14:38Z</time>
      </trkpt>
      <trkpt lat="45.942079" lon="8.437531">
        <ele>207.6000061</ele>
        <time>2010-03-31T13:14:46Z</time>
      </trkpt>
      <trkpt lat="45.941835" lon="8.437591">
        <ele>207.0000000</ele>
        <time>2010-03-31T13:14:51Z</time>
      </trkpt>
      <trkpt lat="45.940991" lon="8.437438">
        <ele>207.1999969</ele>
        <time>2010-03-31T13:14:57Z</time>
      </trkpt>
      <trkpt lat="45.940891" lon="8.437935">
        <ele>209.0000000</ele>
        <time>2010-03-31T13:15:08Z</time>
      </trkpt>
      <trkpt lat="45.940822" lon="8.438283">
        <ele>208.8000031</ele>
        <time>2010-03-31T13:15:18Z</time>
      </trkpt>
      <trkpt lat="45.940774" lon="8.438529">
        <ele>206.1999969</ele>
        <time>2010-03-31T13:15:38Z</time>
      </trkpt>
      <trkpt lat="45.940702" lon="8.438888">
        <ele>205.0000000</ele>
        <time>2010-03-31T13:15:46Z</time>
      </trkpt>
      <trkpt lat="45.940945" lon="8.439463">
        <ele>205.8000031</ele>
        <time>2010-03-31T13:15:54Z</time>
      </trkpt>
      <trkpt lat="45.941013" lon="8.439683">
        <ele>206.1999969</ele>
        <time>2010-03-31T13:15:58Z</time>
      </trkpt>
      <trkpt lat="45.941002" lon="8.439838">
        <ele>206.3999939</ele>
        <time>2010-03-31T13:16:00Z</time>
      </trkpt>
      <trkpt lat="45.940445" lon="8.440236">
        <ele>206.0000000</ele>
        <time>2010-03-31T13:16:12Z</time>
      </trkpt>
      <trkpt lat="45.940000" lon="8.440463">
        <ele>207.8000031</ele>
        <time>2010-03-31T13:16:21Z</time>
      </trkpt>
      <trkpt lat="45.939445" lon="8.440747">
        <ele>209.6000061</ele>
        <time>2010-03-31T13:16:32Z</time>
      </trkpt>
      <trkpt lat="45.939081" lon="8.441035">
        <ele>210.8000031</ele>
        <time>2010-03-31T13:16:40Z</time>
      </trkpt>
      <trkpt lat="45.938596" lon="8.441535">
        <ele>211.6000061</ele>
        <time>2010-03-31T13:16:51Z</time>
      </trkpt>
      <trkpt lat="45.938092" lon="8.442118">
        <ele>213.8000031</ele>
        <time>2010-03-31T13:17:03Z</time>
      </trkpt>
      <trkpt lat="45.937664" lon="8.442499">
        <ele>215.3999939</ele>
        <time>2010-03-31T13:17:12Z</time>
      </trkpt>
      <trkpt lat="45.937274" lon="8.442768">
        <ele>216.8000031</ele>
        <time>2010-03-31T13:17:20Z</time>
      </trkpt>
      <trkpt lat="45.937079" lon="8.442953">
        <ele>214.6000061</ele>
        <time>2010-03-31T13:17:25Z</time>
      </trkpt>
      <trkpt lat="45.936052" lon="8.444580">
        <ele>206.3999939</ele>
        <time>2010-03-31T13:22:12Z</time>
      </trkpt>
      <trkpt lat="45.935886" lon="8.450312">
        <ele>204.8000031</ele>
        <time>2010-03-31T13:24:21Z</time>
      </trkpt>
      <trkpt lat="45.935889" lon="8.452623">
        <ele>205.0000000</ele>
        <time>2010-03-31T13:24:54Z</time>
      </trkpt>
      <trkpt lat="45.935824" lon="8.455413">
        <ele>205.6000061</ele>
        <time>2010-03-31T13:25:35Z</time>
      </trkpt>
      <trkpt lat="45.935841" lon="8.455947">
        <ele>210.1999969</ele>
        <time>2010-03-31T13:25:43Z</time>
      </trkpt>
      <trkpt lat="45.935803" lon="8.456710">
        <ele>207.0000000</ele>
        <time>2010-03-31T13:25:54Z</time>
      </trkpt>
      <trkpt lat="45.935742" lon="8.456979">
        <ele>206.3999939</ele>
        <time>2010-03-31T13:25:58Z</time>
      </trkpt>
      <trkpt lat="45.935673" lon="8.457386">
        <ele>205.8000031</ele>
        <time>2010-03-31T13:26:04Z</time>
      </trkpt>
      <trkpt lat="45.935652" lon="8.458218">
        <ele>210.0000000</ele>
        <time>2010-03-31T13:26:16Z</time>
      </trkpt>
      <trkpt lat="45.935653" lon="8.458576">
        <ele>213.6000061</ele>
        <time>2010-03-31T13:26:22Z</time>
      </trkpt>
      <trkpt lat="45.935611" lon="8.458848">
        <ele>213.1999969</ele>
        <time>2010-03-31T13:26:28Z</time>
      </trkpt>
      <trkpt lat="45.935596" lon="8.459453">
        <ele>213.8000031</ele>
        <time>2010-03-31T13:26:37Z</time>
      </trkpt>
      <trkpt lat="45.935593" lon="8.459979">
        <ele>215.0000000</ele>
        <time>2010-03-31T13:26:45Z</time>
      </trkpt>
      <trkpt lat="45.935568" lon="8.460627">
        <ele>214.3999939</ele>
        <time>2010-03-31T13:26:54Z</time>
      </trkpt>
      <trkpt lat="45.935529" lon="8.461050">
        <ele>212.1999969</ele>
        <time>2010-03-31T13:27:00Z</time>
      </trkpt>
      <trkpt lat="45.935532" lon="8.461414">
        <ele>208.3999939</ele>
        <time>2010-03-31T13:27:05Z</time>
      </trkpt>
      <trkpt lat="45.935535" lon="8.461829">
        <ele>209.6000061</ele>
        <time>2010-03-31T13:27:11Z</time>
      </trkpt>
      <trkpt lat="45.935533" lon="8.462165">
        <ele>211.8000031</ele>
        <time>2010-03-31T13:27:16Z</time>
      </trkpt>
      <trkpt lat="45.935524" lon="8.462725">
        <ele>213.8000031</ele>
        <time>2010-03-31T13:27:24Z</time>
      </trkpt>
      <trkpt lat="45.935531" lon="8.463093">
        <ele>212.8000031</ele>
        <time>2010-03-31T13:27:29Z</time>
      </trkpt>
      <trkpt lat="45.935593" lon="8.463667">
        <ele>207.6000061</ele>
        <time>2010-03-31T13:27:36Z</time>
      </trkpt>
      <trkpt lat="45.935608" lon="8.463964">
        <ele>206.6000061</ele>
        <time>2010-03-31T13:27:40Z</time>
      </trkpt>
      <trkpt lat="45.935663" lon="8.464255">
        <ele>206.3999939</ele>
        <time>2010-03-31T13:27:44Z</time>
      </trkpt>
      <trkpt lat="45.935769" lon="8.464717">
        <ele>205.0000000</ele>
        <time>2010-03-31T13:27:50Z</time>
      </trkpt>
      <trkpt lat="45.935815" lon="8.464909">
        <ele>204.8000031</ele>
        <time>2010-03-31T13:27:53Z</time>
      </trkpt>
      <trkpt lat="45.935855" lon="8.465311">
        <ele>205.0000000</ele>
        <time>2010-03-31T13:27:59Z</time>
      </trkpt>
      <trkpt lat="45.935963" lon="8.465914">
        <ele>205.6000061</ele>
        <time>2010-03-31T13:28:08Z</time>
      </trkpt>
      <trkpt lat="45.936090" lon="8.466521">
        <ele>205.6000061</ele>
        <time>2010-03-31T13:28:17Z</time>
      </trkpt>
      <trkpt lat="45.936178" lon="8.466835">
        <ele>205.8000031</ele>
        <time>2010-03-31T13:28:22Z</time>
      </trkpt>
      <trkpt lat="45.936335" lon="8.467264">
        <ele>206.0000000</ele>
        <time>2010-03-31T13:28:29Z</time>
      </trkpt>
      <trkpt lat="45.936432" lon="8.467499">
        <ele>206.6000061</ele>
        <time>2010-03-31T13:28:33Z</time>
      </trkpt>
      <trkpt lat="45.936679" lon="8.468033">
        <ele>206.3999939</ele>
        <time>2010-03-31T13:28:42Z</time>
      </trkpt>
      <trkpt lat="45.936895" lon="8.468426">
        <ele>205.8000031</ele>
        <time>2010-03-31T13:28:49Z</time>
      </trkpt>
      <trkpt lat="45.936959" lon="8.468545">
        <ele>205.6000061</ele>
        <time>2010-03-31T13:28:51Z</time>
      </trkpt>
      <trkpt lat="45.937172" lon="8.468879">
        <ele>203.8000031</ele>
        <time>2010-03-31T13:28:57Z</time>
      </trkpt>
      <trkpt lat="45.937338" lon="8.469071">
        <ele>202.0000000</ele>
        <time>2010-03-31T13:29:01Z</time>
      </trkpt>
      <trkpt lat="45.937522" lon="8.469190">
        <ele>201.0000000</ele>
        <time>2010-03-31T13:29:05Z</time>
      </trkpt>
      <trkpt lat="45.937700" lon="8.469317">
        <ele>199.3999939</ele>
        <time>2010-03-31T13:29:09Z</time>
      </trkpt>
      <trkpt lat="45.937861" lon="8.469483">
        <ele>197.1999969</ele>
        <time>2010-03-31T13:29:13Z</time>
      </trkpt>
      <trkpt lat="45.938042" lon="8.469613">
        <ele>198.0000000</ele>
        <time>2010-03-31T13:29:17Z</time>
      </trkpt>
      <trkpt lat="45.938237" lon="8.469704">
        <ele>199.3999939</ele>
        <time>2010-03-31T13:29:21Z</time>
      </trkpt>
      <trkpt lat="45.938960" lon="8.469913">
        <ele>201.0000000</ele>
        <time>2010-03-31T13:29:36Z</time>
      </trkpt>
      <trkpt lat="45.939138" lon="8.470003">
        <ele>201.1999969</ele>
        <time>2010-03-31T13:29:41Z</time>
      </trkpt>
      <trkpt lat="45.939506" lon="8.470118">
        <ele>200.1999969</ele>
        <time>2010-03-31T13:29:50Z</time>
      </trkpt>
      <trkpt lat="45.939869" lon="8.470277">
        <ele>200.6000061</ele>
        <time>2010-03-31T13:29:58Z</time>
      </trkpt>
      <trkpt lat="45.940162" lon="8.470337">
        <ele>199.6000061</ele>
        <time>2010-03-31T13:30:04Z</time>
      </trkpt>
      <trkpt lat="45.940427" lon="8.470493">
        <ele>199.3999939</ele>
        <time>2010-03-31T13:30:10Z</time>
      </trkpt>
      <trkpt lat="45.940637" lon="8.470715">
        <ele>199.6000061</ele>
        <time>2010-03-31T13:30:16Z</time>
      </trkpt>
      <trkpt lat="45.940977" lon="8.471164">
        <ele>206.0000000</ele>
        <time>2010-03-31T13:31:31Z</time>
      </trkpt>
      <trkpt lat="45.941117" lon="8.471513">
        <ele>202.8000031</ele>
        <time>2010-03-31T13:31:40Z</time>
      </trkpt>
      <trkpt lat="45.941169" lon="8.471730">
        <ele>202.8000031</ele>
        <time>2010-03-31T13:31:45Z</time>
      </trkpt>
      <trkpt lat="45.941284" lon="8.471911">
        <ele>204.0000000</ele>
        <time>2010-03-31T13:31:53Z</time>
      </trkpt>
      <trkpt lat="45.941449" lon="8.471749">
        <ele>204.1999969</ele>
        <time>2010-03-31T13:31:59Z</time>
      </trkpt>
      <trkpt lat="45.941640" lon="8.471507">
        <ele>203.6000061</ele>
        <time>2010-03-31T13:32:07Z</time>
      </trkpt>
      <trkpt lat="45.941731" lon="8.471310">
        <ele>203.3999939</ele>
        <time>2010-03-31T13:32:12Z</time>
      </trkpt>
      <trkpt lat="45.941970" lon="8.471128">
        <ele>204.1999969</ele>
        <time>2010-03-31T13:32:19Z</time>
      </trkpt>
      <trkpt lat="45.942700" lon="8.470931">
        <ele>204.6000061</ele>
        <time>2010-03-31T13:32:33Z</time>
      </trkpt>
      <trkpt lat="45.942746" lon="8.471219">
        <ele>198.8000031</ele>
        <time>2010-03-31T13:33:26Z</time>
      </trkpt>
      <trkpt lat="45.942755" lon="8.471268">
        <ele>199.0000000</ele>
        <time>2010-03-31T13:33:27Z</time>
      </trkpt>
      <trkpt lat="45.942797" lon="8.471530">
        <ele>199.3999939</ele>
        <time>2010-03-31T13:33:32Z</time>
      </trkpt>
      <trkpt lat="45.943017" lon="8.471439">
        <ele>199.8000031</ele>
        <time>2010-03-31T13:33:35Z</time>
      </trkpt>
      <trkpt lat="45.943208" lon="8.471334">
        <ele>200.8000031</ele>
        <time>2010-03-31T13:33:39Z</time>
      </trkpt>
      <trkpt lat="45.943452" lon="8.471335">
        <ele>202.1999969</ele>
        <time>2010-03-31T13:33:44Z</time>
      </trkpt>
      <trkpt lat="45.943616" lon="8.471604">
        <ele>204.0000000</ele>
        <time>2010-03-31T13:33:50Z</time>
      </trkpt>
    </trkseg>
  </trk>
</gpx>
